
Distance (Route):
Temperature : 0°C
Humidity : 0%
Pressure : 0hPa| Receiver | Frames | First received | Last received |
|---|---|---|---|
| 9A1FER-3 | 245 | 2026-08-30 11:57:14 | 2026-08-30 13:07:48 |
| 9A1FER-10 | 220 | 2026-08-30 12:04:37 | 2026-08-30 13:08:27 |
| PETON7-10 | 55 | 2026-08-30 12:34:43 | 2026-08-30 12:51:57 |
| OE3JTB-15 | 46 | 2026-08-30 11:56:35 | 2026-08-30 12:57:50 |
| HA6NAB-11 | 5 | 2026-08-30 12:22:23 | 2026-08-30 12:22:49 |
| IV3AMH | 1 | 2026-08-30 11:52:17 | 2026-08-30 11:52:17 |
| Receiver | Date | Latitude | Longitude | Direction | Speed | Altitude | Climb | Temperature | Humidity | Pressure | Voltage | Killtimer | Uptime | BKT | XDATA |
|---|---|---|---|---|---|---|---|---|---|---|---|---|---|---|---|
| 9A1FER-10 | 2026-08-30 13:08:27 | 46.03923 | 15.20612 | 99° | 29km/h | 4121m | -13.9m/s | 0°C | 0% | 0hPa | 0V | 00:00:00 | 00:00:00 | 00:00:00 | |
| 9A1FER-3 | 2026-08-30 13:07:48 | 46.03884 | 15.20250 | 89° | 33km/h | 4684m | -13.6m/s | 0°C | 0% | 0hPa | 0V | 00:00:00 | 00:00:00 | 00:00:00 | |
| 9A1FER-10 | 2026-08-30 13:07:31 | 46.03857 | 15.20045 | 79° | 29km/h | 4942m | -13.8m/s | 0°C | 0% | 0hPa | 0V | 00:00:00 | 00:00:00 | 00:00:00 | |
| 9A1FER-3 | 2026-08-30 13:07:19 | 46.03856 | 15.19894 | 90° | 38km/h | 5120m | -14.2m/s | 0°C | 0% | 0hPa | 0V | 00:00:00 | 00:00:00 | 00:00:00 | |
| 9A1FER-10 | 2026-08-30 13:07:01 | 46.03877 | 15.19680 | 108° | 29km/h | 5401m | -14.0m/s | 0°C | 0% | 0hPa | 0V | 00:00:00 | 00:00:00 | 00:00:00 | |
| 9A1FER-3 | 2026-08-30 13:07:00 | 46.03879 | 15.19669 | 98° | 29km/h | 5414m | -13.6m/s | 0°C | 0% | 0hPa | 0V | 00:00:00 | 00:00:00 | 00:00:00 | |
| 9A1FER-3 | 2026-08-30 13:06:45 | 46.03881 | 15.19517 | 115° | 27km/h | 5637m | -16.5m/s | 0°C | 0% | 0hPa | 0V | 00:00:00 | 00:00:00 | 00:00:00 | |
| 9A1FER-3 | 2026-08-30 13:06:30 | 46.03904 | 15.19375 | 119° | 29km/h | 5868m | -15.3m/s | 0°C | 0% | 0hPa | 0V | 00:00:00 | 00:00:00 | 00:00:00 | |
| 9A1FER-10 | 2026-08-30 13:06:19 | 46.03916 | 15.19256 | 96° | 35km/h | 6039m | -15.0m/s | 0°C | 0% | 0hPa | 0V | 00:00:00 | 00:00:00 | 00:00:00 | |
| 9A1FER-3 | 2026-08-30 13:06:14 | 46.03930 | 15.19207 | 122° | 37km/h | 6118m | -16.7m/s | 0°C | 0% | 0hPa | 0V | 00:00:00 | 00:00:00 | 00:00:00 | |
| 9A1FER-3 | 2026-08-30 13:05:59 | 46.03960 | 15.19030 | 101° | 31km/h | 6372m | -16.3m/s | 0°C | 0% | 0hPa | 0V | 00:00:00 | 00:00:00 | 00:00:00 | |
| 9A1FER-3 | 2026-08-30 13:05:44 | 46.03987 | 15.18839 | 94° | 38km/h | 6610m | -16.0m/s | 0°C | 0% | 0hPa | 0V | 00:00:00 | 00:00:00 | 00:00:00 | |
| 9A1FER-10 | 2026-08-30 13:05:32 | 46.04004 | 15.18675 | 111° | 42km/h | 6790m | -14.8m/s | 0°C | 0% | 0hPa | 0V | 00:00:00 | 00:00:00 | 00:00:00 | |
| 9A1FER-3 | 2026-08-30 13:05:28 | 46.04012 | 15.18623 | 97° | 42km/h | 6852m | -15.4m/s | 0°C | 0% | 0hPa | 0V | 00:00:00 | 00:00:00 | 00:00:00 | |
| 9A1FER-3 | 2026-08-30 13:05:13 | 46.04045 | 15.18401 | 104° | 46km/h | 7084m | -15.3m/s | 0°C | 0% | 0hPa | 0V | 00:00:00 | 00:00:00 | 00:00:00 | |
| 9A1FER-3 | 2026-08-30 13:04:58 | 46.04077 | 15.18156 | 96° | 46km/h | 7311m | -15.5m/s | 0°C | 0% | 0hPa | 0V | 00:00:00 | 00:00:00 | 00:00:00 | |
| 9A1FER-10 | 2026-08-30 13:04:49 | 46.04096 | 15.18008 | 93° | 47km/h | 7449m | -15.1m/s | 0°C | 0% | 0hPa | 0V | 00:00:00 | 00:00:00 | 00:00:00 | |
| 9A1FER-3 | 2026-08-30 13:04:43 | 46.04101 | 15.17906 | 94° | 46km/h | 7543m | -16.3m/s | 0°C | 0% | 0hPa | 0V | 00:00:00 | 00:00:00 | 00:00:00 | |
| 9A1FER-10 | 2026-08-30 13:04:34 | 46.04108 | 15.17752 | 99° | 42km/h | 7687m | -15.4m/s | 0°C | 0% | 0hPa | 0V | 00:00:00 | 00:00:00 | 00:00:00 | |
| 9A1FER-3 | 2026-08-30 13:04:28 | 46.04111 | 15.17660 | 89° | 42km/h | 7784m | -16.4m/s | 0°C | 0% | 0hPa | 0V | 00:00:00 | 00:00:00 | 00:00:00 | |
| 9A1FER-10 | 2026-08-30 13:04:19 | 46.04116 | 15.17523 | 101° | 42km/h | 7928m | -15.8m/s | 0°C | 0% | 0hPa | 0V | 00:00:00 | 00:00:00 | 00:00:00 | |
| 9A1FER-3 | 2026-08-30 13:04:13 | 46.04129 | 15.17431 | 105° | 46km/h | 8024m | -15.8m/s | 0°C | 0% | 0hPa | 0V | 00:00:00 | 00:00:00 | 00:00:00 | |
| 9A1FER-10 | 2026-08-30 13:04:04 | 46.04149 | 15.17295 | 106° | 49km/h | 8171m | -16.2m/s | 0°C | 0% | 0hPa | 0V | 00:00:00 | 00:00:00 | 00:00:00 | |
| 9A1FER-3 | 2026-08-30 13:03:58 | 46.04169 | 15.17190 | 104° | 51km/h | 8268m | -16.2m/s | 0°C | 0% | 0hPa | 0V | 00:00:00 | 00:00:00 | 00:00:00 | |
| 9A1FER-10 | 2026-08-30 13:03:47 | 46.04196 | 15.16995 | 100° | 53km/h | 8450m | -16.7m/s | 0°C | 0% | 0hPa | 0V | 00:00:00 | 00:00:00 | 00:00:00 | |
| 9A1FER-3 | 2026-08-30 13:03:43 | 46.04205 | 15.16917 | 101° | 51km/h | 8517m | -16.5m/s | 0°C | 0% | 0hPa | 0V | 00:00:00 | 00:00:00 | 00:00:00 | |
| 9A1FER-10 | 2026-08-30 13:03:32 | 46.04224 | 15.16710 | 95° | 49km/h | 8701m | -16.3m/s | 0°C | 0% | 0hPa | 0V | 00:00:00 | 00:00:00 | 00:00:00 | |
| 9A1FER-3 | 2026-08-30 13:03:28 | 46.04230 | 15.16637 | 94° | 49km/h | 8767m | -16.7m/s | 0°C | 0% | 0hPa | 0V | 00:00:00 | 00:00:00 | 00:00:00 | |
| 9A1FER-10 | 2026-08-30 13:03:17 | 46.04238 | 15.16450 | 91° | 53km/h | 8937m | -13.0m/s | 0°C | 0% | 0hPa | 0V | 00:00:00 | 00:00:00 | 00:00:00 | |
| 9A1FER-3 | 2026-08-30 13:03:13 | 46.04245 | 15.16377 | 97° | 55km/h | 8989m | -12.7m/s | 0°C | 0% | 0hPa | 0V | 00:00:00 | 00:00:00 | 00:00:00 | |
| 9A1FER-10 | 2026-08-30 13:03:02 | 46.04271 | 15.16167 | 107° | 58km/h | 9153m | -15.8m/s | 0°C | 0% | 0hPa | 0V | 00:00:00 | 00:00:00 | 00:00:00 | |
| 9A1FER-3 | 2026-08-30 13:02:58 | 46.04288 | 15.16085 | 110° | 60km/h | 9222m | -17.1m/s | 0°C | 0% | 0hPa | 0V | 00:00:00 | 00:00:00 | 00:00:00 | |
| 9A1FER-10 | 2026-08-30 13:02:47 | 46.04335 | 15.15862 | 103° | 60km/h | 9426m | -19.8m/s | 0°C | 0% | 0hPa | 0V | 00:00:00 | 00:00:00 | 00:00:00 | |
| 9A1FER-3 | 2026-08-30 13:02:43 | 46.04348 | 15.15774 | 104° | 58km/h | 9505m | -19.3m/s | 0°C | 0% | 0hPa | 0V | 00:00:00 | 00:00:00 | 00:00:00 | |
| 9A1FER-10 | 2026-08-30 13:02:32 | 46.04390 | 15.15547 | 108° | 58km/h | 9709m | -18.5m/s | 0°C | 0% | 0hPa | 0V | 00:00:00 | 00:00:00 | 00:00:00 | |
| 9A1FER-3 | 2026-08-30 13:02:28 | 46.04408 | 15.15467 | 105° | 60km/h | 9774m | -15.9m/s | 0°C | 0% | 0hPa | 0V | 00:00:00 | 00:00:00 | 00:00:00 | |
| 9A1FER-10 | 2026-08-30 13:02:17 | 46.04458 | 15.15240 | 108° | 62km/h | 9939m | -15.2m/s | 0°C | 0% | 0hPa | 0V | 00:00:00 | 00:00:00 | 00:00:00 | |
| 9A1FER-3 | 2026-08-30 13:02:13 | 46.04477 | 15.15155 | 109° | 64km/h | 9997m | -16.2m/s | 0°C | 0% | 0hPa | 0V | 00:00:00 | 00:00:00 | 00:00:00 | |
| 9A1FER-10 | 2026-08-30 13:02:02 | 46.04537 | 15.14916 | 112° | 66km/h | 10164m | -14.0m/s | 0°C | 0% | 0hPa | 0V | 00:00:00 | 00:00:00 | 00:00:00 | |
| 9A1FER-3 | 2026-08-30 13:01:58 | 46.04559 | 15.14825 | 111° | 66km/h | 10225m | -15.5m/s | 0°C | 0% | 0hPa | 0V | 00:00:00 | 00:00:00 | 00:00:00 | |
| 9A1FER-10 | 2026-08-30 13:01:47 | 46.04624 | 15.14574 | 111° | 71km/h | 10396m | -15.5m/s | 0°C | 0% | 0hPa | 0V | 00:00:00 | 00:00:00 | 00:00:00 | |
| 9A1FER-3 | 2026-08-30 13:01:43 | 46.04649 | 15.14480 | 112° | 73km/h | 10458m | -16.2m/s | 0°C | 0% | 0hPa | 0V | 00:00:00 | 00:00:00 | 00:00:00 | |
| 9A1FER-10 | 2026-08-30 13:01:32 | 46.04718 | 15.14214 | 113° | 75km/h | 10629m | -16.5m/s | 0°C | 0% | 0hPa | 0V | 00:00:00 | 00:00:00 | 00:00:00 | |
| 9A1FER-3 | 2026-08-30 13:01:28 | 46.04745 | 15.14111 | 109° | 75km/h | 10692m | -16.1m/s | 0°C | 0% | 0hPa | 0V | 00:00:00 | 00:00:00 | 00:00:00 | |
| 9A1FER-10 | 2026-08-30 13:01:17 | 46.04820 | 15.13831 | 114° | 75km/h | 10866m | -15.9m/s | 0°C | 0% | 0hPa | 0V | 00:00:00 | 00:00:00 | 00:00:00 | |
| 9A1FER-3 | 2026-08-30 13:01:13 | 46.04847 | 15.13729 | 111° | 80km/h | 10930m | -14.9m/s | 0°C | 0% | 0hPa | 0V | 00:00:00 | 00:00:00 | 00:00:00 | |
| 9A1FER-10 | 2026-08-30 13:01:02 | 46.04923 | 15.13442 | 112° | 84km/h | 11101m | -16.9m/s | 0°C | 0% | 0hPa | 0V | 00:00:00 | 00:00:00 | 00:00:00 | |
| 9A1FER-3 | 2026-08-30 13:00:54 | 46.04982 | 15.13211 | 110° | 88km/h | 11232m | -15.9m/s | 0°C | 0% | 0hPa | 0V | 00:00:00 | 00:00:00 | 00:00:00 | |
| 9A1FER-10 | 2026-08-30 13:00:47 | 46.05030 | 15.13005 | 109° | 86km/h | 11345m | -16.4m/s | 0°C | 0% | 0hPa | 0V | 00:00:00 | 00:00:00 | 00:00:00 | |
| 9A1FER-3 | 2026-08-30 13:00:37 | 46.05094 | 15.12703 | 106° | 84km/h | 11505m | -16.3m/s | 0°C | 0% | 0hPa | 0V | 00:00:00 | 00:00:00 | 00:00:00 | |
| 9A1FER-10 | 2026-08-30 13:00:32 | 46.05123 | 15.12557 | 107° | 84km/h | 11588m | -15.8m/s | 0°C | 0% | 0hPa | 0V | 00:00:00 | 00:00:00 | 00:00:00 | |
| 9A1FER-3 | 2026-08-30 13:00:22 | 46.05188 | 15.12264 | 110° | 86km/h | 11750m | -16.2m/s | 0°C | 0% | 0hPa | 0V | 00:00:00 | 00:00:00 | 00:00:00 | |
| 9A1FER-10 | 2026-08-30 13:00:17 | 46.05227 | 15.12123 | 111° | 86km/h | 11834m | -15.8m/s | 0°C | 0% | 0hPa | 0V | 00:00:00 | 00:00:00 | 00:00:00 | |
| 9A1FER-3 | 2026-08-30 13:00:07 | 46.05296 | 15.11829 | 104° | 93km/h | 12000m | -16.7m/s | 0°C | 0% | 0hPa | 0V | 00:00:00 | 00:00:00 | 00:00:00 | |
| 9A1FER-10 | 2026-08-30 13:00:02 | 46.05322 | 15.11668 | 102° | 97km/h | 12086m | -17.2m/s | 0°C | 0% | 0hPa | 0V | 00:00:00 | 00:00:00 | 00:00:00 | |
| 9A1FER-10 | 2026-08-30 12:59:47 | 46.05380 | 15.11152 | 100° | 89km/h | 12344m | -17.3m/s | 0°C | 0% | 0hPa | 0V | 00:00:00 | 00:00:00 | 00:00:00 | |
| 9A1FER-3 | 2026-08-30 12:59:44 | 46.05390 | 15.11057 | 97° | 89km/h | 12397m | -17.6m/s | 0°C | 0% | 0hPa | 0V | 00:00:00 | 00:00:00 | 00:00:00 | |
| 9A1FER-10 | 2026-08-30 12:59:32 | 46.05399 | 15.10664 | 91° | 88km/h | 12607m | -17.7m/s | 0°C | 0% | 0hPa | 0V | 00:00:00 | 00:00:00 | 00:00:00 | |
| 9A1FER-3 | 2026-08-30 12:59:29 | 46.05399 | 15.10566 | 90° | 88km/h | 12660m | -17.7m/s | 0°C | 0% | 0hPa | 0V | 00:00:00 | 00:00:00 | 00:00:00 | |
| 9A1FER-10 | 2026-08-30 12:59:17 | 46.05396 | 15.10187 | 88° | 86km/h | 12875m | -18.3m/s | 0°C | 0% | 0hPa | 0V | 00:00:00 | 00:00:00 | 00:00:00 | |
| 9A1FER-3 | 2026-08-30 12:59:14 | 46.05393 | 15.10095 | 88° | 86km/h | 12929m | -17.2m/s | 0°C | 0% | 0hPa | 0V | 00:00:00 | 00:00:00 | 00:00:00 | |
| 9A1FER-10 | 2026-08-30 12:59:02 | 46.05379 | 15.09725 | 87° | 86km/h | 13148m | -17.8m/s | 0°C | 0% | 0hPa | 0V | 00:00:00 | 00:00:00 | 00:00:00 | |
| 9A1FER-3 | 2026-08-30 12:58:58 | 46.05376 | 15.09600 | 90° | 86km/h | 13222m | -18.0m/s | 0°C | 0% | 0hPa | 0V | 00:00:00 | 00:00:00 | 00:00:00 | |
| 9A1FER-10 | 2026-08-30 12:58:47 | 46.05384 | 15.09254 | 97° | 78km/h | 13425m | -18.8m/s | 0°C | 0% | 0hPa | 0V | 00:00:00 | 00:00:00 | 00:00:00 | |
| 9A1FER-3 | 2026-08-30 12:58:43 | 46.05393 | 15.09133 | 98° | 75km/h | 13500m | -18.7m/s | 0°C | 0% | 0hPa | 0V | 00:00:00 | 00:00:00 | 00:00:00 | |
| 9A1FER-10 | 2026-08-30 12:58:32 | 46.05425 | 15.08834 | 97° | 73km/h | 13709m | -18.8m/s | 0°C | 0% | 0hPa | 0V | 00:00:00 | 00:00:00 | 00:00:00 | |
| 9A1FER-3 | 2026-08-30 12:58:28 | 46.05435 | 15.08729 | 98° | 73km/h | 13784m | -18.6m/s | 0°C | 0% | 0hPa | 0V | 00:00:00 | 00:00:00 | 00:00:00 | |
| 9A1FER-10 | 2026-08-30 12:58:17 | 46.05449 | 15.08439 | 96° | 73km/h | 13996m | -18.3m/s | 0°C | 0% | 0hPa | 0V | 00:00:00 | 00:00:00 | 00:00:00 | |
| 9A1FER-3 | 2026-08-30 12:58:13 | 46.05454 | 15.08333 | 90° | 77km/h | 14072m | -18.8m/s | 0°C | 0% | 0hPa | 0V | 00:00:00 | 00:00:00 | 00:00:00 | |
| 9A1FER-10 | 2026-08-30 12:58:02 | 46.05449 | 15.08040 | 92° | 78km/h | 14285m | -20.7m/s | 0°C | 0% | 0hPa | 0V | 00:00:00 | 00:00:00 | 00:00:00 | |
| 9A1FER-3 | 2026-08-30 12:57:57 | 46.05451 | 15.07892 | 92° | 57km/h | 14384m | -19.1m/s | 0°C | 0% | 0hPa | 0V | 00:00:00 | 00:00:00 | 00:00:00 | |
| OE3JTB-15 | 2026-08-30 12:57:50 | 46.05467 | 15.07688 | 103° | 38km/h | 14526m | -20.6m/s | 0°C | 0% | 0hPa | 0V | 00:00:00 | 00:00:00 | 00:00:00 | |
| 9A1FER-10 | 2026-08-30 12:57:47 | 46.05479 | 15.07612 | 103° | 57km/h | 14588m | -20.8m/s | 0°C | 0% | 0hPa | 0V | 00:00:00 | 00:00:00 | 00:00:00 | |
| 9A1FER-10 | 2026-08-30 12:57:33 | 46.05570 | 15.07327 | 114° | 37km/h | 14908m | -21.1m/s | 0°C | 0% | 0hPa | 0V | 00:00:00 | 00:00:00 | 00:00:00 | |
| 9A1FER-10 | 2026-08-30 12:57:17 | 46.05579 | 15.07131 | 77° | 46km/h | 15229m | -21.1m/s | 0°C | 0% | 0hPa | 0V | 00:00:00 | 00:00:00 | 00:00:00 | |
| 9A1FER-10 | 2026-08-30 12:57:02 | 46.05544 | 15.06885 | 77° | 57km/h | 15555m | -22.4m/s | 0°C | 0% | 0hPa | 0V | 00:00:00 | 00:00:00 | 00:00:00 | |
| 9A1FER-3 | 2026-08-30 12:56:55 | 46.05533 | 15.06748 | 87° | 55km/h | 15718m | -24.0m/s | 0°C | 0% | 0hPa | 0V | 00:00:00 | 00:00:00 | 00:00:00 | |
| 9A1FER-10 | 2026-08-30 12:56:47 | 46.05540 | 15.06583 | 97° | 42km/h | 15904m | -22.7m/s | 0°C | 0% | 0hPa | 0V | 00:00:00 | 00:00:00 | 00:00:00 | |
| 9A1FER-3 | 2026-08-30 12:56:39 | 46.05548 | 15.06462 | 93° | 49km/h | 16091m | -24.7m/s | 0°C | 0% | 0hPa | 0V | 00:00:00 | 00:00:00 | 00:00:00 | |
| 9A1FER-10 | 2026-08-30 12:56:32 | 46.05548 | 15.06354 | 88° | 46km/h | 16260m | -23.5m/s | 0°C | 0% | 0hPa | 0V | 00:00:00 | 00:00:00 | 00:00:00 | |
| 9A1FER-3 | 2026-08-30 12:56:21 | 46.05552 | 15.06164 | 101° | 26km/h | 16522m | -22.9m/s | 0°C | 0% | 0hPa | 0V | 00:00:00 | 00:00:00 | 00:00:00 | |
| 9A1FER-10 | 2026-08-30 12:56:17 | 46.05559 | 15.06114 | 104° | 24km/h | 16618m | -23.7m/s | 0°C | 0% | 0hPa | 0V | 00:00:00 | 00:00:00 | 00:00:00 | |
| 9A1FER-10 | 2026-08-30 12:56:02 | 46.05562 | 15.05986 | 97° | 9km/h | 16991m | -25.6m/s | 0°C | 0% | 0hPa | 0V | 00:00:00 | 00:00:00 | 00:00:00 | |
| 9A1FER-3 | 2026-08-30 12:55:58 | 46.05565 | 15.05963 | 104° | 11km/h | 17094m | -26.3m/s | 0°C | 0% | 0hPa | 0V | 00:00:00 | 00:00:00 | 00:00:00 | |
| 9A1FER-10 | 2026-08-30 12:55:47 | 46.05567 | 15.05948 | 7° | 24km/h | 17375m | -26.7m/s | 0°C | 0% | 0hPa | 0V | 00:00:00 | 00:00:00 | 00:00:00 | |
| 9A1FER-3 | 2026-08-30 12:55:41 | 46.05542 | 15.05945 | 33° | 29km/h | 17535m | -27.0m/s | 0°C | 0% | 0hPa | 0V | 00:00:00 | 00:00:00 | 00:00:00 | |
| OE3JTB-15 | 2026-08-30 12:55:38 | 46.05526 | 15.05931 | 37° | 27km/h | 17616m | -26.7m/s | 0°C | 0% | 0hPa | 0V | 00:00:00 | 00:00:00 | 00:00:00 | |
| 9A1FER-10 | 2026-08-30 12:55:32 | 46.05498 | 15.05882 | 61° | 27km/h | 17777m | -26.8m/s | 0°C | 0% | 0hPa | 0V | 00:00:00 | 00:00:00 | 00:00:00 | |
| 9A1FER-3 | 2026-08-30 12:55:26 | 46.05479 | 15.05826 | 69° | 27km/h | 17942m | -27.9m/s | 0°C | 0% | 0hPa | 0V | 00:00:00 | 00:00:00 | 00:00:00 | |
| 9A1FER-10 | 2026-08-30 12:55:17 | 46.05446 | 15.05764 | 48° | 26km/h | 18189m | -28.0m/s | 0°C | 0% | 0hPa | 0V | 00:00:00 | 00:00:00 | 00:00:00 | |
| 9A1FER-3 | 2026-08-30 12:55:08 | 46.05401 | 15.05697 | 51° | 9km/h | 18444m | -27.7m/s | 0°C | 0% | 0hPa | 0V | 00:00:00 | 00:00:00 | 00:00:00 | |
| 9A1FER-10 | 2026-08-30 12:55:02 | 46.05379 | 15.05662 | 50° | 9km/h | 18613m | -28.4m/s | 0°C | 0% | 0hPa | 0V | 00:00:00 | 00:00:00 | 00:00:00 | |
| 9A1FER-3 | 2026-08-30 12:54:47 | 46.05358 | 15.05632 | 124° | 11km/h | 19057m | -28.8m/s | 0°C | 0% | 0hPa | 0V | 00:00:00 | 00:00:00 | 00:00:00 | |
| 9A1FER-3 | 2026-08-30 12:54:32 | 46.05390 | 15.05631 | 279° | 11km/h | 19547m | -30.3m/s | 0°C | 0% | 0hPa | 0V | 00:00:00 | 00:00:00 | 00:00:00 | |
| 9A1FER-10 | 2026-08-30 12:54:17 | 46.05335 | 15.05634 | 8° | 15km/h | 20002m | -30.3m/s | 0°C | 0% | 0hPa | 0V | 00:00:00 | 00:00:00 | 00:00:00 | |
| 9A1FER-10 | 2026-08-30 12:54:02 | 46.05284 | 15.05636 | 358° | 9km/h | 20475m | -30.8m/s | 0°C | 0% | 0hPa | 0V | 00:00:00 | 00:00:00 | 00:00:00 | |
| 9A1FER-3 | 2026-08-30 12:54:00 | 46.05277 | 15.05635 | 20° | 5km/h | 20540m | -32.1m/s | 0°C | 0% | 0hPa | 0V | 00:00:00 | 00:00:00 | 00:00:00 | |
| 9A1FER-10 | 2026-08-30 12:53:47 | 46.05265 | 15.05643 | 298° | 7km/h | 20971m | -34.4m/s | 0°C | 0% | 0hPa | 0V | 00:00:00 | 00:00:00 | 00:00:00 | |
| 9A1FER-3 | 2026-08-30 12:53:43 | 46.05262 | 15.05646 | 25° | 9km/h | 21105m | -33.9m/s | 0°C | 0% | 0hPa | 0V | 00:00:00 | 00:00:00 | 00:00:00 | |
| 9A1FER-10 | 2026-08-30 12:53:32 | 46.05248 | 15.05621 | 288° | 7km/h | 21484m | -34.7m/s | 0°C | 0% | 0hPa | 0V | 00:00:00 | 00:00:00 | 00:00:00 | |
| 9A1FER-3 | 2026-08-30 12:53:27 | 46.05251 | 15.05630 | 276° | 11km/h | 21660m | -34.9m/s | 0°C | 0% | 0hPa | 0V | 00:00:00 | 00:00:00 | 00:00:00 | |
| 9A1FER-10 | 2026-08-30 12:53:17 | 46.05243 | 15.05657 | 293° | 22km/h | 22008m | -35.0m/s | 0°C | 0% | 0hPa | 0V | 00:00:00 | 00:00:00 | 00:00:00 | |
| 9A1FER-3 | 2026-08-30 12:53:11 | 46.05224 | 15.05685 | 311° | 20km/h | 22225m | -37.7m/s | 0°C | 0% | 0hPa | 0V | 00:00:00 | 00:00:00 | 00:00:00 | |
| 9A1FER-10 | 2026-08-30 12:53:02 | 46.05204 | 15.05752 | 295° | 20km/h | 22568m | -38.3m/s | 0°C | 0% | 0hPa | 0V | 00:00:00 | 00:00:00 | 00:00:00 | |
| 9A1FER-3 | 2026-08-30 12:52:56 | 46.05178 | 15.05787 | 325° | 16km/h | 22869m | -50.1m/s | 0°C | 0% | 0hPa | 0V | 00:00:00 | 00:00:00 | 00:00:00 | |
| 9A1FER-3 | 2026-08-30 12:52:24 | 46.05137 | 15.05825 | 296° | 24km/h | 24285m | -47.3m/s | 0°C | 0% | 0hPa | 0V | 00:00:00 | 00:00:00 | 00:00:00 | |
| 9A1FER-3 | 2026-08-30 12:52:09 | 46.05081 | 15.05859 | 26° | 18km/h | 24774m | -16.9m/s | 0°C | 0% | 0hPa | 0V | 00:00:00 | 00:00:00 | 00:00:00 | |
| 9A1FER-10 | 2026-08-30 12:52:02 | 46.05047 | 15.05881 | 93° | 13km/h | 24936m | -22.3m/s | 0°C | 0% | 0hPa | 0V | 00:00:00 | 00:00:00 | 00:00:00 | |
| PETON7-10 | 2026-08-30 12:51:57 | 46.05051 | 15.05853 | 111° | 13km/h | 24955m | 4.5m/s | 0°C | 0% | 0hPa | 0V | 00:00:00 | 00:00:00 | 00:00:00 | |
| 9A1FER-3 | 2026-08-30 12:51:54 | 46.05051 | 15.05842 | 64° | 13km/h | 24938m | 5.8m/s | 0°C | 0% | 0hPa | 0V | 00:00:00 | 00:00:00 | 00:00:00 | |
| 9A1FER-10 | 2026-08-30 12:51:45 | 46.05038 | 15.05808 | 65° | 16km/h | 24885m | 6.4m/s | 0°C | 0% | 0hPa | 0V | 00:00:00 | 00:00:00 | 00:00:00 | |
| PETON7-10 | 2026-08-30 12:51:42 | 46.05031 | 15.05802 | 39° | 18km/h | 24869m | 6.3m/s | 0°C | 0% | 0hPa | 0V | 00:00:00 | 00:00:00 | 00:00:00 | |
| 9A1FER-3 | 2026-08-30 12:51:39 | 46.05018 | 15.05790 | 22° | 18km/h | 24851m | 6.1m/s | 0°C | 0% | 0hPa | 0V | 00:00:00 | 00:00:00 | 00:00:00 | |
| 9A1FER-10 | 2026-08-30 12:51:30 | 46.04986 | 15.05768 | 24° | 22km/h | 24799m | 5.9m/s | 0°C | 0% | 0hPa | 0V | 00:00:00 | 00:00:00 | 00:00:00 | |
| PETON7-10 | 2026-08-30 12:51:26 | 46.04964 | 15.05756 | 17° | 24km/h | 24777m | 4.3m/s | 0°C | 0% | 0hPa | 0V | 00:00:00 | 00:00:00 | 00:00:00 | |
| 9A1FER-3 | 2026-08-30 12:51:24 | 46.04957 | 15.05751 | 40° | 24km/h | 24766m | 4.6m/s | 0°C | 0% | 0hPa | 0V | 00:00:00 | 00:00:00 | 00:00:00 | |
| 9A1FER-10 | 2026-08-30 12:51:15 | 46.04907 | 15.05756 | 355° | 26km/h | 24715m | 5.2m/s | 0°C | 0% | 0hPa | 0V | 00:00:00 | 00:00:00 | 00:00:00 | |
| 9A1FER-3 | 2026-08-30 12:51:09 | 46.04870 | 15.05751 | 341° | 27km/h | 24683m | 5.3m/s | 0°C | 0% | 0hPa | 0V | 00:00:00 | 00:00:00 | 00:00:00 | |
| PETON7-10 | 2026-08-30 12:51:08 | 46.04863 | 15.05756 | 330° | 27km/h | 24677m | 5.1m/s | 0°C | 0% | 0hPa | 0V | 00:00:00 | 00:00:00 | 00:00:00 | |
| 9A1FER-10 | 2026-08-30 12:51:00 | 46.04819 | 15.05791 | 323° | 27km/h | 24632m | 6.6m/s | 0°C | 0% | 0hPa | 0V | 00:00:00 | 00:00:00 | 00:00:00 | |
| 9A1FER-3 | 2026-08-30 12:50:54 | 46.04791 | 15.05836 | 312° | 26km/h | 24598m | 4.3m/s | 0°C | 0% | 0hPa | 0V | 00:00:00 | 00:00:00 | 00:00:00 | |
| PETON7-10 | 2026-08-30 12:50:53 | 46.04786 | 15.05844 | 322° | 24km/h | 24593m | 5.1m/s | 0°C | 0% | 0hPa | 0V | 00:00:00 | 00:00:00 | 00:00:00 | |
| 9A1FER-10 | 2026-08-30 12:50:45 | 46.04754 | 15.05895 | 309° | 26km/h | 24548m | 6.0m/s | 0°C | 0% | 0hPa | 0V | 00:00:00 | 00:00:00 | 00:00:00 | |
| 9A1FER-3 | 2026-08-30 12:50:39 | 46.04729 | 15.05932 | 312° | 24km/h | 24513m | 4.9m/s | 0°C | 0% | 0hPa | 0V | 00:00:00 | 00:00:00 | 00:00:00 | |
| PETON7-10 | 2026-08-30 12:50:38 | 46.04726 | 15.05939 | 302° | 24km/h | 24507m | 6.3m/s | 0°C | 0% | 0hPa | 0V | 00:00:00 | 00:00:00 | 00:00:00 | |
| 9A1FER-10 | 2026-08-30 12:50:30 | 46.04694 | 15.06005 | 296° | 22km/h | 24462m | 4.7m/s | 0°C | 0% | 0hPa | 0V | 00:00:00 | 00:00:00 | 00:00:00 | |
| 9A1FER-3 | 2026-08-30 12:50:24 | 46.04688 | 15.06047 | 271° | 24km/h | 24428m | 4.2m/s | 0°C | 0% | 0hPa | 0V | 00:00:00 | 00:00:00 | 00:00:00 | |
| PETON7-10 | 2026-08-30 12:50:23 | 46.04687 | 15.06057 | 286° | 24km/h | 24423m | 6.0m/s | 0°C | 0% | 0hPa | 0V | 00:00:00 | 00:00:00 | 00:00:00 | |
| 9A1FER-10 | 2026-08-30 12:50:15 | 46.04673 | 15.06115 | 261° | 22km/h | 24377m | 5.0m/s | 0°C | 0% | 0hPa | 0V | 00:00:00 | 00:00:00 | 00:00:00 | |
| 9A1FER-3 | 2026-08-30 12:50:09 | 46.04670 | 15.06164 | 319° | 22km/h | 24343m | 4.1m/s | 0°C | 0% | 0hPa | 0V | 00:00:00 | 00:00:00 | 00:00:00 | |
| PETON7-10 | 2026-08-30 12:50:07 | 46.04666 | 15.06176 | 272° | 20km/h | 24332m | 5.2m/s | 0°C | 0% | 0hPa | 0V | 00:00:00 | 00:00:00 | 00:00:00 | |
| 9A1FER-10 | 2026-08-30 12:50:00 | 46.04669 | 15.06230 | 281° | 20km/h | 24295m | 6.1m/s | 0°C | 0% | 0hPa | 0V | 00:00:00 | 00:00:00 | 00:00:00 | |
| 9A1FER-3 | 2026-08-30 12:49:54 | 46.04660 | 15.06275 | 289° | 16km/h | 24262m | 5.8m/s | 0°C | 0% | 0hPa | 0V | 00:00:00 | 00:00:00 | 00:00:00 | |
| PETON7-10 | 2026-08-30 12:49:51 | 46.04655 | 15.06295 | 283° | 16km/h | 24247m | 5.2m/s | 0°C | 0% | 0hPa | 0V | 00:00:00 | 00:00:00 | 00:00:00 | |
| 9A1FER-10 | 2026-08-30 12:49:45 | 46.04651 | 15.06334 | 278° | 15km/h | 24213m | 6.0m/s | 0°C | 0% | 0hPa | 0V | 00:00:00 | 00:00:00 | 00:00:00 | |
| 9A1FER-3 | 2026-08-30 12:49:39 | 46.04656 | 15.06362 | 249° | 15km/h | 24180m | 5.0m/s | 0°C | 0% | 0hPa | 0V | 00:00:00 | 00:00:00 | 00:00:00 | |
| PETON7-10 | 2026-08-30 12:49:36 | 46.04662 | 15.06379 | 234° | 13km/h | 24164m | 4.8m/s | 0°C | 0% | 0hPa | 0V | 00:00:00 | 00:00:00 | 00:00:00 | |
| 9A1FER-10 | 2026-08-30 12:49:30 | 46.04661 | 15.06405 | 275° | 11km/h | 24131m | 4.5m/s | 0°C | 0% | 0hPa | 0V | 00:00:00 | 00:00:00 | 00:00:00 | |
| 9A1FER-3 | 2026-08-30 12:49:24 | 46.04672 | 15.06425 | 196° | 11km/h | 24098m | 5.7m/s | 0°C | 0% | 0hPa | 0V | 00:00:00 | 00:00:00 | 00:00:00 | |
| PETON7-10 | 2026-08-30 12:49:21 | 46.04678 | 15.06430 | 197° | 11km/h | 24081m | 7.2m/s | 0°C | 0% | 0hPa | 0V | 00:00:00 | 00:00:00 | 00:00:00 | |
| 9A1FER-10 | 2026-08-30 12:49:15 | 46.04688 | 15.06436 | 160° | 13km/h | 24049m | 5.7m/s | 0°C | 0% | 0hPa | 0V | 00:00:00 | 00:00:00 | 00:00:00 | |
| 9A1FER-3 | 2026-08-30 12:49:09 | 46.04706 | 15.06435 | 161° | 13km/h | 24017m | 6.0m/s | 0°C | 0% | 0hPa | 0V | 00:00:00 | 00:00:00 | 00:00:00 | |
| PETON7-10 | 2026-08-30 12:49:03 | 46.04721 | 15.06421 | 110° | 15km/h | 23985m | 5.2m/s | 0°C | 0% | 0hPa | 0V | 00:00:00 | 00:00:00 | 00:00:00 | |
| 9A1FER-10 | 2026-08-30 12:49:00 | 46.04724 | 15.06412 | 197° | 15km/h | 23970m | 6.4m/s | 0°C | 0% | 0hPa | 0V | 00:00:00 | 00:00:00 | 00:00:00 | |
| 9A1FER-3 | 2026-08-30 12:48:54 | 46.04744 | 15.06417 | 126° | 15km/h | 23938m | 4.8m/s | 0°C | 0% | 0hPa | 0V | 00:00:00 | 00:00:00 | 00:00:00 | |
| 9A1FER-10 | 2026-08-30 12:48:45 | 46.04746 | 15.06366 | 133° | 11km/h | 23891m | 5.1m/s | 0°C | 0% | 0hPa | 0V | 00:00:00 | 00:00:00 | 00:00:00 | |
| 9A1FER-3 | 2026-08-30 12:48:39 | 46.04746 | 15.06333 | 68° | 11km/h | 23860m | 4.2m/s | 0°C | 0% | 0hPa | 0V | 00:00:00 | 00:00:00 | 00:00:00 | |
| PETON7-10 | 2026-08-30 12:48:32 | 46.04747 | 15.06318 | 70° | 11km/h | 23822m | 5.2m/s | 0°C | 0% | 0hPa | 0V | 00:00:00 | 00:00:00 | 00:00:00 | |
| 9A1FER-10 | 2026-08-30 12:48:30 | 46.04743 | 15.06313 | 43° | 11km/h | 23812m | 5.1m/s | 0°C | 0% | 0hPa | 0V | 00:00:00 | 00:00:00 | 00:00:00 | |
| 9A1FER-3 | 2026-08-30 12:48:24 | 46.04727 | 15.06295 | 6° | 7km/h | 23779m | 6.7m/s | 0°C | 0% | 0hPa | 0V | 00:00:00 | 00:00:00 | 00:00:00 | |
| PETON7-10 | 2026-08-30 12:48:17 | 46.04710 | 15.06292 | 40° | 9km/h | 23740m | 5.1m/s | 0°C | 0% | 0hPa | 0V | 00:00:00 | 00:00:00 | 00:00:00 | |
| 9A1FER-10 | 2026-08-30 12:48:15 | 46.04708 | 15.06293 | 276° | 11km/h | 23730m | 4.1m/s | 0°C | 0% | 0hPa | 0V | 00:00:00 | 00:00:00 | 00:00:00 | |
| 9A1FER-3 | 2026-08-30 12:48:09 | 46.04705 | 15.06302 | 351° | 9km/h | 23698m | 4.5m/s | 0°C | 0% | 0hPa | 0V | 00:00:00 | 00:00:00 | 00:00:00 | |
| 9A1FER-10 | 2026-08-30 12:47:59 | 46.04701 | 15.06325 | 291° | 9km/h | 23646m | 4.0m/s | 0°C | 0% | 0hPa | 0V | 00:00:00 | 00:00:00 | 00:00:00 | |
| 9A1FER-3 | 2026-08-30 12:47:54 | 46.04699 | 15.06336 | 273° | 9km/h | 23620m | 5.2m/s | 0°C | 0% | 0hPa | 0V | 00:00:00 | 00:00:00 | 00:00:00 | |
| PETON7-10 | 2026-08-30 12:47:53 | 46.04699 | 15.06339 | 264° | 11km/h | 23615m | 4.6m/s | 0°C | 0% | 0hPa | 0V | 00:00:00 | 00:00:00 | 00:00:00 | |
| 9A1FER-10 | 2026-08-30 12:47:44 | 46.04707 | 15.06360 | 212° | 11km/h | 23564m | 5.2m/s | 0°C | 0% | 0hPa | 0V | 00:00:00 | 00:00:00 | 00:00:00 | |
| 9A1FER-3 | 2026-08-30 12:47:39 | 46.04714 | 15.06371 | 287° | 9km/h | 23537m | 6.5m/s | 0°C | 0% | 0hPa | 0V | 00:00:00 | 00:00:00 | 00:00:00 | |
| PETON7-10 | 2026-08-30 12:47:30 | 46.04731 | 15.06386 | 122° | 7km/h | 23489m | 4.3m/s | 0°C | 0% | 0hPa | 0V | 00:00:00 | 00:00:00 | 00:00:00 | |
| 9A1FER-10 | 2026-08-30 12:47:29 | 46.04732 | 15.06384 | 100° | 5km/h | 23483m | 6.6m/s | 0°C | 0% | 0hPa | 0V | 00:00:00 | 00:00:00 | 00:00:00 | |
| 9A1FER-3 | 2026-08-30 12:47:23 | 46.04731 | 15.06382 | 174° | 7km/h | 23450m | 6.7m/s | 0°C | 0% | 0hPa | 0V | 00:00:00 | 00:00:00 | 00:00:00 | |
| 9A1FER-10 | 2026-08-30 12:47:14 | 46.04735 | 15.06361 | 106° | 9km/h | 23399m | 5.0m/s | 0°C | 0% | 0hPa | 0V | 00:00:00 | 00:00:00 | 00:00:00 | |
| PETON7-10 | 2026-08-30 12:47:09 | 46.04738 | 15.06349 | 97° | 15km/h | 23372m | 5.5m/s | 0°C | 0% | 0hPa | 0V | 00:00:00 | 00:00:00 | 00:00:00 | |
| 9A1FER-3 | 2026-08-30 12:47:08 | 46.04738 | 15.06346 | 81° | 13km/h | 23366m | 6.1m/s | 0°C | 0% | 0hPa | 0V | 00:00:00 | 00:00:00 | 00:00:00 | |
| 9A1FER-10 | 2026-08-30 12:46:59 | 46.04723 | 15.06319 | 72° | 18km/h | 23315m | 6.7m/s | 0°C | 0% | 0hPa | 0V | 00:00:00 | 00:00:00 | 00:00:00 | |
| 9A1FER-3 | 2026-08-30 12:46:53 | 46.04703 | 15.06290 | 19° | 22km/h | 23282m | 7.0m/s | 0°C | 0% | 0hPa | 0V | 00:00:00 | 00:00:00 | 00:00:00 | |
| 9A1FER-10 | 2026-08-30 12:46:44 | 46.04665 | 15.06258 | 21° | 26km/h | 23232m | 6.5m/s | 0°C | 0% | 0hPa | 0V | 00:00:00 | 00:00:00 | 00:00:00 | |
| 9A1FER-3 | 2026-08-30 12:46:38 | 46.04634 | 15.06238 | 59° | 29km/h | 23198m | 4.5m/s | 0°C | 0% | 0hPa | 0V | 00:00:00 | 00:00:00 | 00:00:00 | |
| PETON7-10 | 2026-08-30 12:46:37 | 46.04631 | 15.06233 | 48° | 26km/h | 23193m | 6.0m/s | 0°C | 0% | 0hPa | 0V | 00:00:00 | 00:00:00 | 00:00:00 | |
| 9A1FER-10 | 2026-08-30 12:46:28 | 46.04569 | 15.06219 | 18° | 29km/h | 23144m | 6.4m/s | 0°C | 0% | 0hPa | 0V | 00:00:00 | 00:00:00 | 00:00:00 | |
| 9A1FER-3 | 2026-08-30 12:46:23 | 46.04529 | 15.06208 | 355° | 29km/h | 23115m | 7.0m/s | 0°C | 0% | 0hPa | 0V | 00:00:00 | 00:00:00 | 00:00:00 | |
| PETON7-10 | 2026-08-30 12:46:20 | 46.04508 | 15.06210 | 349° | 26km/h | 23100m | 6.2m/s | 0°C | 0% | 0hPa | 0V | 00:00:00 | 00:00:00 | 00:00:00 | |
| 9A1FER-10 | 2026-08-30 12:46:13 | 46.04456 | 15.06212 | 348° | 26km/h | 23061m | 4.5m/s | 0°C | 0% | 0hPa | 0V | 00:00:00 | 00:00:00 | 00:00:00 | |
| 9A1FER-3 | 2026-08-30 12:46:08 | 46.04423 | 15.06230 | 319° | 22km/h | 23033m | 4.2m/s | 0°C | 0% | 0hPa | 0V | 00:00:00 | 00:00:00 | 00:00:00 | |
| PETON7-10 | 2026-08-30 12:46:04 | 46.04403 | 15.06236 | 352° | 24km/h | 23011m | 6.0m/s | 0°C | 0% | 0hPa | 0V | 00:00:00 | 00:00:00 | 00:00:00 | |
| 9A1FER-10 | 2026-08-30 12:45:58 | 46.04371 | 15.06261 | 317° | 24km/h | 22977m | 6.1m/s | 0°C | 0% | 0hPa | 0V | 00:00:00 | 00:00:00 | 00:00:00 | |
| 9A1FER-3 | 2026-08-30 12:45:53 | 46.04351 | 15.06285 | 316° | 27km/h | 22947m | 5.8m/s | 0°C | 0% | 0hPa | 0V | 00:00:00 | 00:00:00 | 00:00:00 | |
| PETON7-10 | 2026-08-30 12:45:48 | 46.04327 | 15.06317 | 314° | 29km/h | 22919m | 5.5m/s | 0°C | 0% | 0hPa | 0V | 00:00:00 | 00:00:00 | 00:00:00 | |
| 9A1FER-10 | 2026-08-30 12:45:43 | 46.04310 | 15.06353 | 299° | 31km/h | 22891m | 5.7m/s | 0°C | 0% | 0hPa | 0V | 00:00:00 | 00:00:00 | 00:00:00 | |
| 9A1FER-3 | 2026-08-30 12:45:38 | 46.04287 | 15.06399 | 308° | 33km/h | 22864m | 7.1m/s | 0°C | 0% | 0hPa | 0V | 00:00:00 | 00:00:00 | 00:00:00 | |
| PETON7-10 | 2026-08-30 12:45:32 | 46.04264 | 15.06460 | 292° | 33km/h | 22828m | 4.9m/s | 0°C | 0% | 0hPa | 0V | 00:00:00 | 00:00:00 | 00:00:00 | |
| 9A1FER-10 | 2026-08-30 12:45:28 | 46.04250 | 15.06501 | 304° | 35km/h | 22805m | 6.5m/s | 0°C | 0% | 0hPa | 0V | 00:00:00 | 00:00:00 | 00:00:00 | |
| 9A1FER-3 | 2026-08-30 12:45:23 | 46.04227 | 15.06551 | 290° | 33km/h | 22778m | 5.5m/s | 0°C | 0% | 0hPa | 0V | 00:00:00 | 00:00:00 | 00:00:00 | |
| PETON7-10 | 2026-08-30 12:45:18 | 46.04206 | 15.06621 | 297° | 33km/h | 22744m | 7.0m/s | 0°C | 0% | 0hPa | 0V | 00:00:00 | 00:00:00 | 00:00:00 | |
| 9A1FER-10 | 2026-08-30 12:45:13 | 46.04195 | 15.06670 | 280° | 31km/h | 22721m | 6.4m/s | 0°C | 0% | 0hPa | 0V | 00:00:00 | 00:00:00 | 00:00:00 | |
| PETON7-10 | 2026-08-30 12:45:01 | 46.04160 | 15.06796 | 294° | 31km/h | 22654m | 4.9m/s | 0°C | 0% | 0hPa | 0V | 00:00:00 | 00:00:00 | 00:00:00 | |
| 9A1FER-10 | 2026-08-30 12:44:58 | 46.04147 | 15.06819 | 319° | 31km/h | 22637m | 4.9m/s | 0°C | 0% | 0hPa | 0V | 00:00:00 | 00:00:00 | 00:00:00 | |
| 9A1FER-3 | 2026-08-30 12:44:53 | 46.04123 | 15.06863 | 308° | 31km/h | 22609m | 5.4m/s | 0°C | 0% | 0hPa | 0V | 00:00:00 | 00:00:00 | 00:00:00 | |
| PETON7-10 | 2026-08-30 12:44:44 | 46.04080 | 15.06943 | 305° | 27km/h | 22560m | 4.9m/s | 0°C | 0% | 0hPa | 0V | 00:00:00 | 00:00:00 | 00:00:00 | |
| 9A1FER-10 | 2026-08-30 12:44:43 | 46.04075 | 15.06954 | 306° | 27km/h | 22555m | 6.5m/s | 0°C | 0% | 0hPa | 0V | 00:00:00 | 00:00:00 | 00:00:00 | |
| 9A1FER-3 | 2026-08-30 12:44:38 | 46.04065 | 15.07002 | 278° | 26km/h | 22526m | 5.3m/s | 0°C | 0% | 0hPa | 0V | 00:00:00 | 00:00:00 | 00:00:00 | |
| PETON7-10 | 2026-08-30 12:44:29 | 46.04044 | 15.07080 | 251° | 22km/h | 22478m | 4.6m/s | 0°C | 0% | 0hPa | 0V | 00:00:00 | 00:00:00 | 00:00:00 | |
| 9A1FER-10 | 2026-08-30 12:44:28 | 46.04045 | 15.07088 | 262° | 22km/h | 22474m | 3.6m/s | 0°C | 0% | 0hPa | 0V | 00:00:00 | 00:00:00 | 00:00:00 | |
| OE3JTB-15 | 2026-08-30 12:44:27 | 46.04045 | 15.07095 | 278° | 18km/h | 22469m | 6.1m/s | 0°C | 0% | 0hPa | 0V | 00:00:00 | 00:00:00 | 00:00:00 | |
| 9A1FER-3 | 2026-08-30 12:44:22 | 46.04032 | 15.07136 | 285° | 20km/h | 22442m | 5.6m/s | 0°C | 0% | 0hPa | 0V | 00:00:00 | 00:00:00 | 00:00:00 | |
| PETON7-10 | 2026-08-30 12:44:14 | 46.04028 | 15.07190 | 301° | 15km/h | 22398m | 6.2m/s | 0°C | 0% | 0hPa | 0V | 00:00:00 | 00:00:00 | 00:00:00 | |
| 9A1FER-10 | 2026-08-30 12:44:13 | 46.04026 | 15.07198 | 291° | 16km/h | 22392m | 5.5m/s | 0°C | 0% | 0hPa | 0V | 00:00:00 | 00:00:00 | 00:00:00 | |
| 9A1FER-3 | 2026-08-30 12:44:07 | 46.04024 | 15.07240 | 259° | 13km/h | 22359m | 4.7m/s | 0°C | 0% | 0hPa | 0V | 00:00:00 | 00:00:00 | 00:00:00 | |
| OE3JTB-15 | 2026-08-30 12:43:58 | 46.04024 | 15.07280 | 265° | 18km/h | 22312m | 5.9m/s | 0°C | 0% | 0hPa | 0V | 00:00:00 | 00:00:00 | 00:00:00 | |
| 9A1FER-3 | 2026-08-30 12:43:52 | 46.04016 | 15.07309 | 292° | 20km/h | 22279m | 5.5m/s | 0°C | 0% | 0hPa | 0V | 00:00:00 | 00:00:00 | 00:00:00 | |
| 9A1FER-10 | 2026-08-30 12:43:43 | 46.03997 | 15.07356 | 348° | 22km/h | 22232m | 3.9m/s | 0°C | 0% | 0hPa | 0V | 00:00:00 | 00:00:00 | 00:00:00 | |
| 9A1FER-3 | 2026-08-30 12:43:37 | 46.03973 | 15.07390 | 312° | 18km/h | 22201m | 5.0m/s | 0°C | 0% | 0hPa | 0V | 00:00:00 | 00:00:00 | 00:00:00 | |
| PETON7-10 | 2026-08-30 12:43:28 | 46.03941 | 15.07435 | 309° | 16km/h | 22151m | 4.8m/s | 0°C | 0% | 0hPa | 0V | 00:00:00 | 00:00:00 | 00:00:00 | |
| 9A1FER-3 | 2026-08-30 12:43:22 | 46.03923 | 15.07453 | 299° | 15km/h | 22118m | 6.0m/s | 0°C | 0% | 0hPa | 0V | 00:00:00 | 00:00:00 | 00:00:00 | |
| 9A1FER-10 | 2026-08-30 12:43:13 | 46.03906 | 15.07494 | 349° | 13km/h | 22071m | 5.2m/s | 0°C | 0% | 0hPa | 0V | 00:00:00 | 00:00:00 | 00:00:00 | |
| 9A1FER-3 | 2026-08-30 12:43:07 | 46.03905 | 15.07523 | 252° | 13km/h | 22042m | 5.5m/s | 0°C | 0% | 0hPa | 0V | 00:00:00 | 00:00:00 | 00:00:00 | |
| OE3JTB-15 | 2026-08-30 12:42:59 | 46.03916 | 15.07556 | 254° | 11km/h | 21999m | 4.5m/s | 0°C | 0% | 0hPa | 0V | 00:00:00 | 00:00:00 | 00:00:00 | |
| PETON7-10 | 2026-08-30 12:42:58 | 46.03918 | 15.07561 | 241° | 11km/h | 21993m | 6.6m/s | 0°C | 0% | 0hPa | 0V | 00:00:00 | 00:00:00 | 00:00:00 | |
| 9A1FER-3 | 2026-08-30 12:42:52 | 46.03928 | 15.07575 | 174° | 11km/h | 21959m | 3.9m/s | 0°C | 0% | 0hPa | 0V | 00:00:00 | 00:00:00 | 00:00:00 | |
| 9A1FER-10 | 2026-08-30 12:42:43 | 46.03945 | 15.07599 | 169° | 7km/h | 21911m | 5.3m/s | 0°C | 0% | 0hPa | 0V | 00:00:00 | 00:00:00 | 00:00:00 | |
| 9A1FER-3 | 2026-08-30 12:42:37 | 46.03958 | 15.07608 | 232° | 7km/h | 21881m | 4.8m/s | 0°C | 0% | 0hPa | 0V | 00:00:00 | 00:00:00 | 00:00:00 | |
| OE3JTB-15 | 2026-08-30 12:42:30 | 46.03960 | 15.07608 | 265° | 9km/h | 21843m | 4.8m/s | 0°C | 0% | 0hPa | 0V | 00:00:00 | 00:00:00 | 00:00:00 | |
| 9A1FER-10 | 2026-08-30 12:42:28 | 46.03962 | 15.07614 | 238° | 9km/h | 21832m | 3.9m/s | 0°C | 0% | 0hPa | 0V | 00:00:00 | 00:00:00 | 00:00:00 | |
| 9A1FER-3 | 2026-08-30 12:42:22 | 46.03962 | 15.07620 | 99° | 9km/h | 21800m | 3.8m/s | 0°C | 0% | 0hPa | 0V | 00:00:00 | 00:00:00 | 00:00:00 | |
| PETON7-10 | 2026-08-30 12:42:13 | 46.03961 | 15.07650 | 271° | 11km/h | 21755m | 6.6m/s | 0°C | 0% | 0hPa | 0V | 00:00:00 | 00:00:00 | 00:00:00 | |
| 9A1FER-3 | 2026-08-30 12:42:07 | 46.03956 | 15.07658 | 251° | 11km/h | 21722m | 4.4m/s | 0°C | 0% | 0hPa | 0V | 00:00:00 | 00:00:00 | 00:00:00 | |
| OE3JTB-15 | 2026-08-30 12:42:00 | 46.03962 | 15.07692 | 286° | 9km/h | 21684m | 6.0m/s | 0°C | 0% | 0hPa | 0V | 00:00:00 | 00:00:00 | 00:00:00 | |
| 9A1FER-10 | 2026-08-30 12:41:58 | 46.03961 | 15.07692 | 96° | 11km/h | 21674m | 6.5m/s | 0°C | 0% | 0hPa | 0V | 00:00:00 | 00:00:00 | 00:00:00 | |
| 9A1FER-3 | 2026-08-30 12:41:52 | 46.03972 | 15.07711 | 215° | 11km/h | 21642m | 4.2m/s | 0°C | 0% | 0hPa | 0V | 00:00:00 | 00:00:00 | 00:00:00 | |
| PETON7-10 | 2026-08-30 12:41:44 | 46.03989 | 15.07726 | 191° | 11km/h | 21594m | 6.4m/s | 0°C | 0% | 0hPa | 0V | 00:00:00 | 00:00:00 | 00:00:00 | |
| 9A1FER-10 | 2026-08-30 12:41:43 | 46.03989 | 15.07726 | 191° | 11km/h | 21594m | 6.4m/s | 0°C | 0% | 0hPa | 0V | 00:00:00 | 00:00:00 | 00:00:00 | |
| 9A1FER-3 | 2026-08-30 12:41:37 | 46.04008 | 15.07734 | 198° | 13km/h | 21562m | 5.3m/s | 0°C | 0% | 0hPa | 0V | 00:00:00 | 00:00:00 | 00:00:00 | |
| PETON7-10 | 2026-08-30 12:41:28 | 46.04026 | 15.07725 | 155° | 13km/h | 21513m | 5.0m/s | 0°C | 0% | 0hPa | 0V | 00:00:00 | 00:00:00 | 00:00:00 | |
| 9A1FER-3 | 2026-08-30 12:41:20 | 46.04028 | 15.07690 | 167° | 11km/h | 21470m | 5.6m/s | 0°C | 0% | 0hPa | 0V | 00:00:00 | 00:00:00 | 00:00:00 | |
| 9A1FER-10 | 2026-08-30 12:41:13 | 46.04024 | 15.07665 | 63° | 9km/h | 21431m | 5.5m/s | 0°C | 0% | 0hPa | 0V | 00:00:00 | 00:00:00 | 00:00:00 | |
| PETON7-10 | 2026-08-30 12:41:10 | 46.04024 | 15.07655 | 209° | 11km/h | 21414m | 6.6m/s | 0°C | 0% | 0hPa | 0V | 00:00:00 | 00:00:00 | 00:00:00 | |
| 9A1FER-3 | 2026-08-30 12:41:05 | 46.04025 | 15.07646 | 51° | 13km/h | 21386m | 5.5m/s | 0°C | 0% | 0hPa | 0V | 00:00:00 | 00:00:00 | 00:00:00 | |
| OE3JTB-15 | 2026-08-30 12:41:01 | 46.04017 | 15.07625 | 80° | 13km/h | 21366m | 5.2m/s | 0°C | 0% | 0hPa | 0V | 00:00:00 | 00:00:00 | 00:00:00 | |
| 9A1FER-10 | 2026-08-30 12:40:58 | 46.04017 | 15.07623 | 95° | 11km/h | 21349m | 6.1m/s | 0°C | 0% | 0hPa | 0V | 00:00:00 | 00:00:00 | 00:00:00 | |
| PETON7-10 | 2026-08-30 12:40:53 | 46.04003 | 15.07606 | 60° | 15km/h | 21322m | 4.7m/s | 0°C | 0% | 0hPa | 0V | 00:00:00 | 00:00:00 | 00:00:00 | |
| 9A1FER-3 | 2026-08-30 12:40:50 | 46.03995 | 15.07594 | 4° | 13km/h | 21306m | 5.3m/s | 0°C | 0% | 0hPa | 0V | 00:00:00 | 00:00:00 | 00:00:00 | |
| 9A1FER-10 | 2026-08-30 12:40:43 | 46.03979 | 15.07589 | 51° | 13km/h | 21269m | 4.2m/s | 0°C | 0% | 0hPa | 0V | 00:00:00 | 00:00:00 | 00:00:00 | |
| PETON7-10 | 2026-08-30 12:40:38 | 46.03961 | 15.07584 | 302° | 9km/h | 21242m | 4.9m/s | 0°C | 0% | 0hPa | 0V | 00:00:00 | 00:00:00 | 00:00:00 | |
| 9A1FER-3 | 2026-08-30 12:40:35 | 46.03956 | 15.07592 | 7° | 9km/h | 21227m | 4.5m/s | 0°C | 0% | 0hPa | 0V | 00:00:00 | 00:00:00 | 00:00:00 | |
| 9A1FER-10 | 2026-08-30 12:40:27 | 46.03944 | 15.07586 | 289° | 9km/h | 21185m | 5.0m/s | 0°C | 0% | 0hPa | 0V | 00:00:00 | 00:00:00 | 00:00:00 | |
| 9A1FER-3 | 2026-08-30 12:40:20 | 46.03942 | 15.07582 | 138° | 11km/h | 21149m | 5.5m/s | 0°C | 0% | 0hPa | 0V | 00:00:00 | 00:00:00 | 00:00:00 | |
| 9A1FER-10 | 2026-08-30 12:40:12 | 46.03943 | 15.07610 | 258° | 9km/h | 21107m | 3.8m/s | 0°C | 0% | 0hPa | 0V | 00:00:00 | 00:00:00 | 00:00:00 | |
| PETON7-10 | 2026-08-30 12:40:08 | 46.03947 | 15.07623 | 227° | 11km/h | 21086m | 4.9m/s | 0°C | 0% | 0hPa | 0V | 00:00:00 | 00:00:00 | 00:00:00 | |
| 9A1FER-3 | 2026-08-30 12:40:05 | 46.03950 | 15.07635 | 287° | 11km/h | 21071m | 4.3m/s | 0°C | 0% | 0hPa | 0V | 00:00:00 | 00:00:00 | 00:00:00 | |
| 9A1FER-10 | 2026-08-30 12:39:57 | 46.03958 | 15.07653 | 226° | 11km/h | 21029m | 6.0m/s | 0°C | 0% | 0hPa | 0V | 00:00:00 | 00:00:00 | 00:00:00 | |
| PETON7-10 | 2026-08-30 12:39:53 | 46.03966 | 15.07673 | 231° | 9km/h | 21008m | 4.3m/s | 0°C | 0% | 0hPa | 0V | 00:00:00 | 00:00:00 | 00:00:00 | |
| 9A1FER-3 | 2026-08-30 12:39:50 | 46.03972 | 15.07687 | 246° | 9km/h | 20993m | 3.8m/s | 0°C | 0% | 0hPa | 0V | 00:00:00 | 00:00:00 | 00:00:00 | |
| 9A1FER-10 | 2026-08-30 12:39:42 | 46.03981 | 15.07697 | 250° | 7km/h | 20950m | 6.7m/s | 0°C | 0% | 0hPa | 0V | 00:00:00 | 00:00:00 | 00:00:00 | |
| PETON7-10 | 2026-08-30 12:39:38 | 46.03984 | 15.07712 | 190° | 7km/h | 20930m | 5.7m/s | 0°C | 0% | 0hPa | 0V | 00:00:00 | 00:00:00 | 00:00:00 | |
| 9A1FER-3 | 2026-08-30 12:39:35 | 46.03988 | 15.07706 | 83° | 5km/h | 20914m | 4.8m/s | 0°C | 0% | 0hPa | 0V | 00:00:00 | 00:00:00 | 00:00:00 | |
| 9A1FER-10 | 2026-08-30 12:39:27 | 46.03991 | 15.07709 | 136° | 11km/h | 20873m | 4.0m/s | 0°C | 0% | 0hPa | 0V | 00:00:00 | 00:00:00 | 00:00:00 | |
| PETON7-10 | 2026-08-30 12:39:23 | 46.03988 | 15.07702 | 44° | 9km/h | 20852m | 6.2m/s | 0°C | 0% | 0hPa | 0V | 00:00:00 | 00:00:00 | 00:00:00 | |
| 9A1FER-3 | 2026-08-30 12:39:20 | 46.03988 | 15.07701 | 358° | 13km/h | 20836m | 6.0m/s | 0°C | 0% | 0hPa | 0V | 00:00:00 | 00:00:00 | 00:00:00 | |
| PETON7-10 | 2026-08-30 12:39:08 | 46.03963 | 15.07667 | 23° | 18km/h | 20775m | 4.8m/s | 0°C | 0% | 0hPa | 0V | 00:00:00 | 00:00:00 | 00:00:00 | |
| 9A1FER-3 | 2026-08-30 12:39:05 | 46.03953 | 15.07654 | 49° | 20km/h | 20760m | 3.8m/s | 0°C | 0% | 0hPa | 0V | 00:00:00 | 00:00:00 | 00:00:00 | |
| 9A1FER-10 | 2026-08-30 12:38:57 | 46.03922 | 15.07616 | 31° | 18km/h | 20718m | 5.5m/s | 0°C | 0% | 0hPa | 0V | 00:00:00 | 00:00:00 | 00:00:00 | |
| PETON7-10 | 2026-08-30 12:38:53 | 46.03906 | 15.07609 | 19° | 20km/h | 20696m | 3.3m/s | 0°C | 0% | 0hPa | 0V | 00:00:00 | 00:00:00 | 00:00:00 | |
| 9A1FER-3 | 2026-08-30 12:38:50 | 46.03894 | 15.07599 | 48° | 18km/h | 20680m | 5.4m/s | 0°C | 0% | 0hPa | 0V | 00:00:00 | 00:00:00 | 00:00:00 | |
| 9A1FER-10 | 2026-08-30 12:38:42 | 46.03858 | 15.07578 | 358° | 18km/h | 20639m | 6.1m/s | 0°C | 0% | 0hPa | 0V | 00:00:00 | 00:00:00 | 00:00:00 | |
| PETON7-10 | 2026-08-30 12:38:36 | 46.03833 | 15.07568 | 20° | 15km/h | 20609m | 5.8m/s | 0°C | 0% | 0hPa | 0V | 00:00:00 | 00:00:00 | 00:00:00 | |
| 9A1FER-3 | 2026-08-30 12:38:35 | 46.03830 | 15.07566 | 11° | 16km/h | 20604m | 4.0m/s | 0°C | 0% | 0hPa | 0V | 00:00:00 | 00:00:00 | 00:00:00 | |
| PETON7-10 | 2026-08-30 12:38:21 | 46.03774 | 15.07566 | 350° | 11km/h | 20532m | 4.6m/s | 0°C | 0% | 0hPa | 0V | 00:00:00 | 00:00:00 | 00:00:00 | |
| 9A1FER-3 | 2026-08-30 12:38:20 | 46.03770 | 15.07567 | 348° | 11km/h | 20527m | 5.2m/s | 0°C | 0% | 0hPa | 0V | 00:00:00 | 00:00:00 | 00:00:00 | |
| 9A1FER-10 | 2026-08-30 12:38:12 | 46.03748 | 15.07567 | 74° | 13km/h | 20485m | 5.2m/s | 0°C | 0% | 0hPa | 0V | 00:00:00 | 00:00:00 | 00:00:00 | |
| PETON7-10 | 2026-08-30 12:38:06 | 46.03731 | 15.07568 | 349° | 15km/h | 20454m | 4.7m/s | 0°C | 0% | 0hPa | 0V | 00:00:00 | 00:00:00 | 00:00:00 | |
| 9A1FER-3 | 2026-08-30 12:38:05 | 46.03729 | 15.07568 | 12° | 15km/h | 20448m | 6.2m/s | 0°C | 0% | 0hPa | 0V | 00:00:00 | 00:00:00 | 00:00:00 | |
| 9A1FER-10 | 2026-08-30 12:37:57 | 46.03701 | 15.07556 | 2° | 22km/h | 20407m | 5.1m/s | 0°C | 0% | 0hPa | 0V | 00:00:00 | 00:00:00 | 00:00:00 | |
| OE3JTB-15 | 2026-08-30 12:37:51 | 46.03682 | 15.07541 | 15° | 20km/h | 20376m | 4.2m/s | 0°C | 0% | 0hPa | 0V | 00:00:00 | 00:00:00 | 00:00:00 | |
| 9A1FER-3 | 2026-08-30 12:37:50 | 46.03677 | 15.07539 | 14° | 24km/h | 20371m | 6.5m/s | 0°C | 0% | 0hPa | 0V | 00:00:00 | 00:00:00 | 00:00:00 | |
| PETON7-10 | 2026-08-30 12:37:49 | 46.03670 | 15.07537 | 13° | 24km/h | 20365m | 4.7m/s | 0°C | 0% | 0hPa | 0V | 00:00:00 | 00:00:00 | 00:00:00 | |
| 9A1FER-10 | 2026-08-30 12:37:42 | 46.03626 | 15.07527 | 358° | 20km/h | 20328m | 4.8m/s | 0°C | 0% | 0hPa | 0V | 00:00:00 | 00:00:00 | 00:00:00 | |
| 9A1FER-3 | 2026-08-30 12:37:35 | 46.03589 | 15.07526 | 7° | 18km/h | 20290m | 4.3m/s | 0°C | 0% | 0hPa | 0V | 00:00:00 | 00:00:00 | 00:00:00 | |
| PETON7-10 | 2026-08-30 12:37:34 | 46.03584 | 15.07526 | 357° | 18km/h | 20285m | 6.0m/s | 0°C | 0% | 0hPa | 0V | 00:00:00 | 00:00:00 | 00:00:00 | |
| 9A1FER-10 | 2026-08-30 12:37:27 | 46.03552 | 15.07537 | 326° | 18km/h | 20250m | 3.6m/s | 0°C | 0% | 0hPa | 0V | 00:00:00 | 00:00:00 | 00:00:00 | |
| OE3JTB-15 | 2026-08-30 12:37:22 | 46.03527 | 15.07542 | 341° | 13km/h | 20225m | 4.3m/s | 0°C | 0% | 0hPa | 0V | 00:00:00 | 00:00:00 | 00:00:00 | |
| 9A1FER-3 | 2026-08-30 12:37:20 | 46.03521 | 15.07546 | 341° | 15km/h | 20214m | 4.5m/s | 0°C | 0% | 0hPa | 0V | 00:00:00 | 00:00:00 | 00:00:00 | |
| PETON7-10 | 2026-08-30 12:37:19 | 46.03517 | 15.07548 | 322° | 16km/h | 20209m | 6.5m/s | 0°C | 0% | 0hPa | 0V | 00:00:00 | 00:00:00 | 00:00:00 | |
| 9A1FER-10 | 2026-08-30 12:37:12 | 46.03488 | 15.07564 | 346° | 11km/h | 20173m | 5.0m/s | 0°C | 0% | 0hPa | 0V | 00:00:00 | 00:00:00 | 00:00:00 | |
| 9A1FER-3 | 2026-08-30 12:37:05 | 46.03469 | 15.07577 | 358° | 11km/h | 20138m | 3.9m/s | 0°C | 0% | 0hPa | 0V | 00:00:00 | 00:00:00 | 00:00:00 | |
| PETON7-10 | 2026-08-30 12:37:04 | 46.03466 | 15.07577 | 2° | 9km/h | 20133m | 5.2m/s | 0°C | 0% | 0hPa | 0V | 00:00:00 | 00:00:00 | 00:00:00 | |
| 9A1FER-10 | 2026-08-30 12:36:57 | 46.03450 | 15.07582 | 324° | 15km/h | 20096m | 4.6m/s | 0°C | 0% | 0hPa | 0V | 00:00:00 | 00:00:00 | 00:00:00 | |
| OE3JTB-15 | 2026-08-30 12:36:53 | 46.03434 | 15.07586 | 22° | 15km/h | 20077m | 6.1m/s | 0°C | 0% | 0hPa | 0V | 00:00:00 | 00:00:00 | 00:00:00 | |
| 9A1FER-3 | 2026-08-30 12:36:50 | 46.03431 | 15.07581 | 39° | 16km/h | 20061m | 4.6m/s | 0°C | 0% | 0hPa | 0V | 00:00:00 | 00:00:00 | 00:00:00 | |
| PETON7-10 | 2026-08-30 12:36:48 | 46.03427 | 15.07581 | 334° | 18km/h | 20051m | 5.1m/s | 0°C | 0% | 0hPa | 0V | 00:00:00 | 00:00:00 | 00:00:00 | |
| 9A1FER-10 | 2026-08-30 12:36:42 | 46.03395 | 15.07584 | 18° | 16km/h | 20020m | 4.7m/s | 0°C | 0% | 0hPa | 0V | 00:00:00 | 00:00:00 | 00:00:00 | |
| 9A1FER-3 | 2026-08-30 12:36:35 | 46.03373 | 15.07581 | 356° | 22km/h | 19985m | 5.1m/s | 0°C | 0% | 0hPa | 0V | 00:00:00 | 00:00:00 | 00:00:00 | |
| PETON7-10 | 2026-08-30 12:36:32 | 46.03355 | 15.07582 | 360° | 20km/h | 19970m | 4.9m/s | 0°C | 0% | 0hPa | 0V | 00:00:00 | 00:00:00 | 00:00:00 | |
| 9A1FER-10 | 2026-08-30 12:36:27 | 46.03334 | 15.07580 | 342° | 18km/h | 19946m | 4.4m/s | 0°C | 0% | 0hPa | 0V | 00:00:00 | 00:00:00 | 00:00:00 | |
| 9A1FER-3 | 2026-08-30 12:36:20 | 46.03299 | 15.07594 | 352° | 20km/h | 19910m | 5.1m/s | 0°C | 0% | 0hPa | 0V | 00:00:00 | 00:00:00 | 00:00:00 | |
| PETON7-10 | 2026-08-30 12:36:15 | 46.03282 | 15.07608 | 331° | 18km/h | 19884m | 5.1m/s | 0°C | 0% | 0hPa | 0V | 00:00:00 | 00:00:00 | 00:00:00 | |
| 9A1FER-10 | 2026-08-30 12:36:12 | 46.03269 | 15.07618 | 329° | 18km/h | 19870m | 4.7m/s | 0°C | 0% | 0hPa | 0V | 00:00:00 | 00:00:00 | 00:00:00 | |
| 9A1FER-3 | 2026-08-30 12:36:03 | 46.03224 | 15.07632 | 346° | 18km/h | 19824m | 5.6m/s | 0°C | 0% | 0hPa | 0V | 00:00:00 | 00:00:00 | 00:00:00 | |
| OE3JTB-15 | 2026-08-30 12:36:01 | 46.03216 | 15.07636 | 345° | 13km/h | 19813m | 4.4m/s | 0°C | 0% | 0hPa | 0V | 00:00:00 | 00:00:00 | 00:00:00 | |
| PETON7-10 | 2026-08-30 12:35:59 | 46.03208 | 15.07636 | 9° | 11km/h | 19803m | 3.9m/s | 0°C | 0% | 0hPa | 0V | 00:00:00 | 00:00:00 | 00:00:00 | |
| 9A1FER-10 | 2026-08-30 12:35:57 | 46.03201 | 15.07636 | 348° | 16km/h | 19793m | 4.2m/s | 0°C | 0% | 0hPa | 0V | 00:00:00 | 00:00:00 | 00:00:00 | |
| 9A1FER-3 | 2026-08-30 12:35:48 | 46.03158 | 15.07644 | 349° | 13km/h | 19746m | 4.8m/s | 0°C | 0% | 0hPa | 0V | 00:00:00 | 00:00:00 | 00:00:00 | |
| 9A1FER-10 | 2026-08-30 12:35:42 | 46.03138 | 15.07648 | 327° | 9km/h | 19714m | 5.1m/s | 0°C | 0% | 0hPa | 0V | 00:00:00 | 00:00:00 | 00:00:00 | |
| 9A1FER-3 | 2026-08-30 12:35:33 | 46.03118 | 15.07660 | 307° | 7km/h | 19665m | 4.1m/s | 0°C | 0% | 0hPa | 0V | 00:00:00 | 00:00:00 | 00:00:00 | |
| OE3JTB-15 | 2026-08-30 12:35:29 | 46.03111 | 15.07665 | 314° | 7km/h | 19642m | 6.1m/s | 0°C | 0% | 0hPa | 0V | 00:00:00 | 00:00:00 | 00:00:00 | |
| 9A1FER-10 | 2026-08-30 12:35:27 | 46.03110 | 15.07669 | 279° | 7km/h | 19631m | 7.0m/s | 0°C | 0% | 0hPa | 0V | 00:00:00 | 00:00:00 | 00:00:00 | |
| 9A1FER-3 | 2026-08-30 12:35:18 | 46.03107 | 15.07694 | 271° | 7km/h | 19581m | 7.0m/s | 0°C | 0% | 0hPa | 0V | 00:00:00 | 00:00:00 | 00:00:00 | |
| PETON7-10 | 2026-08-30 12:35:15 | 46.03109 | 15.07698 | 233° | 7km/h | 19564m | 4.4m/s | 0°C | 0% | 0hPa | 0V | 00:00:00 | 00:00:00 | 00:00:00 | |
| 9A1FER-10 | 2026-08-30 12:35:12 | 46.03111 | 15.07703 | 290° | 7km/h | 19548m | 4.7m/s | 0°C | 0% | 0hPa | 0V | 00:00:00 | 00:00:00 | 00:00:00 | |
| 9A1FER-3 | 2026-08-30 12:35:03 | 46.03115 | 15.07720 | 147° | 7km/h | 19501m | 5.4m/s | 0°C | 0% | 0hPa | 0V | 00:00:00 | 00:00:00 | 00:00:00 | |
| PETON7-10 | 2026-08-30 12:35:00 | 46.03118 | 15.07722 | 239° | 7km/h | 19484m | 3.5m/s | 0°C | 0% | 0hPa | 0V | 00:00:00 | 00:00:00 | 00:00:00 | |
| 9A1FER-10 | 2026-08-30 12:34:57 | 46.03121 | 15.07724 | 157° | 9km/h | 19469m | 4.4m/s | 0°C | 0% | 0hPa | 0V | 00:00:00 | 00:00:00 | 00:00:00 | |
| 9A1FER-3 | 2026-08-30 12:34:48 | 46.03140 | 15.07723 | 186° | 9km/h | 19422m | 5.5m/s | 0°C | 0% | 0hPa | 0V | 00:00:00 | 00:00:00 | 00:00:00 | |
| PETON7-10 | 2026-08-30 12:34:43 | 46.03150 | 15.07721 | 164° | 11km/h | 19395m | 6.2m/s | 0°C | 0% | 0hPa | 0V | 00:00:00 | 00:00:00 | 00:00:00 | |
| 9A1FER-10 | 2026-08-30 12:34:42 | 46.03152 | 15.07719 | 132° | 11km/h | 19390m | 4.9m/s | 0°C | 0% | 0hPa | 0V | 00:00:00 | 00:00:00 | 00:00:00 | |
| 9A1FER-3 | 2026-08-30 12:34:33 | 46.03170 | 15.07708 | 134° | 11km/h | 19341m | 5.5m/s | 0°C | 0% | 0hPa | 0V | 00:00:00 | 00:00:00 | 00:00:00 | |
| 9A1FER-10 | 2026-08-30 12:34:27 | 46.03185 | 15.07695 | 314° | 9km/h | 19310m | 4.1m/s | 0°C | 0% | 0hPa | 0V | 00:00:00 | 00:00:00 | 00:00:00 | |
| 9A1FER-3 | 2026-08-30 12:34:18 | 46.03197 | 15.07676 | 157° | 7km/h | 19265m | 5.9m/s | 0°C | 0% | 0hPa | 0V | 00:00:00 | 00:00:00 | 00:00:00 | |
| 9A1FER-10 | 2026-08-30 12:34:12 | 46.03207 | 15.07668 | 118° | 9km/h | 19234m | 4.6m/s | 0°C | 0% | 0hPa | 0V | 00:00:00 | 00:00:00 | 00:00:00 | |
| 9A1FER-3 | 2026-08-30 12:34:03 | 46.03223 | 15.07658 | 138° | 9km/h | 19187m | 5.9m/s | 0°C | 0% | 0hPa | 0V | 00:00:00 | 00:00:00 | 00:00:00 | |
| 9A1FER-10 | 2026-08-30 12:33:57 | 46.03235 | 15.07641 | 170° | 7km/h | 19155m | 5.6m/s | 0°C | 0% | 0hPa | 0V | 00:00:00 | 00:00:00 | 00:00:00 | |
| 9A1FER-3 | 2026-08-30 12:33:48 | 46.03267 | 15.07634 | 139° | 7km/h | 19109m | 4.8m/s | 0°C | 0% | 0hPa | 0V | 00:00:00 | 00:00:00 | 00:00:00 | |
| 9A1FER-10 | 2026-08-30 12:33:42 | 46.03258 | 15.07624 | 158° | 5km/h | 19079m | 4.0m/s | 0°C | 0% | 0hPa | 0V | 00:00:00 | 00:00:00 | 00:00:00 | |
| 9A1FER-3 | 2026-08-30 12:33:34 | 46.03261 | 15.07613 | 281° | 7km/h | 19032m | 4.4m/s | 0°C | 0% | 0hPa | 0V | 00:00:00 | 00:00:00 | 00:00:00 | |
| 9A1FER-10 | 2026-08-30 12:33:27 | 46.03264 | 15.07603 | 102° | 5km/h | 19002m | 5.7m/s | 0°C | 0% | 0hPa | 0V | 00:00:00 | 00:00:00 | 00:00:00 | |
| 9A1FER-3 | 2026-08-30 12:33:18 | 46.03258 | 15.07589 | 142° | 7km/h | 18957m | 5.8m/s | 0°C | 0% | 0hPa | 0V | 00:00:00 | 00:00:00 | 00:00:00 | |
| 9A1FER-10 | 2026-08-30 12:33:12 | 46.03254 | 15.07579 | 56° | 9km/h | 18927m | 5.3m/s | 0°C | 0% | 0hPa | 0V | 00:00:00 | 00:00:00 | 00:00:00 | |
| 9A1FER-3 | 2026-08-30 12:33:03 | 46.03246 | 15.07571 | 16° | 9km/h | 18881m | 3.9m/s | 0°C | 0% | 0hPa | 0V | 00:00:00 | 00:00:00 | 00:00:00 | |
| 9A1FER-10 | 2026-08-30 12:32:57 | 46.03234 | 15.07552 | 57° | 9km/h | 18851m | 5.7m/s | 0°C | 0% | 0hPa | 0V | 00:00:00 | 00:00:00 | 00:00:00 | |
| 9A1FER-3 | 2026-08-30 12:32:48 | 46.03218 | 15.07541 | 16° | 11km/h | 18808m | 4.4m/s | 0°C | 0% | 0hPa | 0V | 00:00:00 | 00:00:00 | 00:00:00 | |
| 9A1FER-10 | 2026-08-30 12:32:42 | 46.03207 | 15.07530 | 348° | 13km/h | 18779m | 4.8m/s | 0°C | 0% | 0hPa | 0V | 00:00:00 | 00:00:00 | 00:00:00 | |
| 9A1FER-3 | 2026-08-30 12:32:33 | 46.03187 | 15.07508 | 30° | 15km/h | 18735m | 5.0m/s | 0°C | 0% | 0hPa | 0V | 00:00:00 | 00:00:00 | 00:00:00 | |
| 9A1FER-10 | 2026-08-30 12:32:26 | 46.03164 | 15.07507 | 30° | 18km/h | 18700m | 5.6m/s | 0°C | 0% | 0hPa | 0V | 00:00:00 | 00:00:00 | 00:00:00 | |
| 9A1FER-3 | 2026-08-30 12:32:18 | 46.03136 | 15.07484 | 36° | 20km/h | 18660m | 4.3m/s | 0°C | 0% | 0hPa | 0V | 00:00:00 | 00:00:00 | 00:00:00 | |
| OE3JTB-15 | 2026-08-30 12:32:17 | 46.03132 | 15.07480 | 33° | 22km/h | 18655m | 5.8m/s | 0°C | 0% | 0hPa | 0V | 00:00:00 | 00:00:00 | 00:00:00 | |
| 9A1FER-10 | 2026-08-30 12:32:11 | 46.03109 | 15.07456 | 43° | 20km/h | 18624m | 6.1m/s | 0°C | 0% | 0hPa | 0V | 00:00:00 | 00:00:00 | 00:00:00 | |
| 9A1FER-3 | 2026-08-30 12:32:03 | 46.03078 | 15.07410 | 54° | 22km/h | 18584m | 3.9m/s | 0°C | 0% | 0hPa | 0V | 00:00:00 | 00:00:00 | 00:00:00 | |
| 9A1FER-10 | 2026-08-30 12:31:56 | 46.03056 | 15.07369 | 47° | 26km/h | 18550m | 3.9m/s | 0°C | 0% | 0hPa | 0V | 00:00:00 | 00:00:00 | 00:00:00 | |
| 9A1FER-3 | 2026-08-30 12:31:48 | 46.03031 | 15.07316 | 62° | 29km/h | 18508m | 4.8m/s | 0°C | 0% | 0hPa | 0V | 00:00:00 | 00:00:00 | 00:00:00 | |
| 9A1FER-10 | 2026-08-30 12:31:41 | 46.03001 | 15.07260 | 47° | 29km/h | 18472m | 5.2m/s | 0°C | 0% | 0hPa | 0V | 00:00:00 | 00:00:00 | 00:00:00 | |
| 9A1FER-3 | 2026-08-30 12:31:33 | 46.02963 | 15.07188 | 52° | 29km/h | 18432m | 4.7m/s | 0°C | 0% | 0hPa | 0V | 00:00:00 | 00:00:00 | 00:00:00 | |
| 9A1FER-10 | 2026-08-30 12:31:26 | 46.02935 | 15.07131 | 54° | 31km/h | 18397m | 5.5m/s | 0°C | 0% | 0hPa | 0V | 00:00:00 | 00:00:00 | 00:00:00 | |
| OE3JTB-15 | 2026-08-30 12:31:19 | 46.02894 | 15.07082 | 47° | 27km/h | 18363m | 5.6m/s | 0°C | 0% | 0hPa | 0V | 00:00:00 | 00:00:00 | 00:00:00 | |
| 9A1FER-3 | 2026-08-30 12:31:18 | 46.02890 | 15.07073 | 55° | 29km/h | 18358m | 4.3m/s | 0°C | 0% | 0hPa | 0V | 00:00:00 | 00:00:00 | 00:00:00 | |
| 9A1FER-10 | 2026-08-30 12:31:11 | 46.02855 | 15.07011 | 39° | 26km/h | 18322m | 4.7m/s | 0°C | 0% | 0hPa | 0V | 00:00:00 | 00:00:00 | 00:00:00 | |
| 9A1FER-3 | 2026-08-30 12:31:03 | 46.02817 | 15.06956 | 46° | 24km/h | 18283m | 5.4m/s | 0°C | 0% | 0hPa | 0V | 00:00:00 | 00:00:00 | 00:00:00 | |
| 9A1FER-10 | 2026-08-30 12:30:56 | 46.02782 | 15.06916 | 49° | 24km/h | 18246m | 6.3m/s | 0°C | 0% | 0hPa | 0V | 00:00:00 | 00:00:00 | 00:00:00 | |
| OE3JTB-15 | 2026-08-30 12:30:50 | 46.02757 | 15.06875 | 45° | 20km/h | 18212m | 4.7m/s | 0°C | 0% | 0hPa | 0V | 00:00:00 | 00:00:00 | 00:00:00 | |
| 9A1FER-3 | 2026-08-30 12:30:48 | 46.02752 | 15.06868 | 41° | 24km/h | 18207m | 5.6m/s | 0°C | 0% | 0hPa | 0V | 00:00:00 | 00:00:00 | 00:00:00 | |
| 9A1FER-10 | 2026-08-30 12:30:41 | 46.02720 | 15.06828 | 31° | 20km/h | 18174m | 5.8m/s | 0°C | 0% | 0hPa | 0V | 00:00:00 | 00:00:00 | 00:00:00 | |
| 9A1FER-3 | 2026-08-30 12:30:33 | 46.02685 | 15.06797 | 31° | 18km/h | 18133m | 4.2m/s | 0°C | 0% | 0hPa | 0V | 00:00:00 | 00:00:00 | 00:00:00 | |
| 9A1FER-10 | 2026-08-30 12:30:26 | 46.02659 | 15.06765 | 42° | 18km/h | 18098m | 5.0m/s | 0°C | 0% | 0hPa | 0V | 00:00:00 | 00:00:00 | 00:00:00 | |
| OE3JTB-15 | 2026-08-30 12:30:21 | 46.02634 | 15.06727 | 58° | 24km/h | 18056m | 6.0m/s | 0°C | 0% | 0hPa | 0V | 00:00:00 | 00:00:00 | 00:00:00 | |
| 9A1FER-3 | 2026-08-30 12:30:18 | 46.02634 | 15.06727 | 58° | 20km/h | 18056m | 6.0m/s | 0°C | 0% | 0hPa | 0V | 00:00:00 | 00:00:00 | 00:00:00 | |
| 9A1FER-10 | 2026-08-30 12:30:11 | 46.02613 | 15.06687 | 53° | 24km/h | 18019m | 4.9m/s | 0°C | 0% | 0hPa | 0V | 00:00:00 | 00:00:00 | 00:00:00 | |
| 9A1FER-3 | 2026-08-30 12:30:03 | 46.02607 | 15.06630 | 81° | 27km/h | 17980m | 3.4m/s | 0°C | 0% | 0hPa | 0V | 00:00:00 | 00:00:00 | 00:00:00 | |
| 9A1FER-10 | 2026-08-30 12:29:56 | 46.02582 | 15.06565 | 61° | 27km/h | 17944m | 4.8m/s | 0°C | 0% | 0hPa | 0V | 00:00:00 | 00:00:00 | 00:00:00 | |
| 9A1FER-3 | 2026-08-30 12:29:48 | 46.02561 | 15.06496 | 52° | 29km/h | 17905m | 5.6m/s | 0°C | 0% | 0hPa | 0V | 00:00:00 | 00:00:00 | 00:00:00 | |
| OE3JTB-15 | 2026-08-30 12:29:47 | 46.02557 | 15.06489 | 48° | 29km/h | 17899m | 5.2m/s | 0°C | 0% | 0hPa | 0V | 00:00:00 | 00:00:00 | 00:00:00 | |
| 9A1FER-10 | 2026-08-30 12:29:41 | 46.02533 | 15.06433 | 61° | 27km/h | 17869m | 6.5m/s | 0°C | 0% | 0hPa | 0V | 00:00:00 | 00:00:00 | 00:00:00 | |
| 9A1FER-3 | 2026-08-30 12:29:32 | 46.02492 | 15.06362 | 54° | 27km/h | 17822m | 5.7m/s | 0°C | 0% | 0hPa | 0V | 00:00:00 | 00:00:00 | 00:00:00 | |
| 9A1FER-10 | 2026-08-30 12:29:26 | 46.02462 | 15.06322 | 42° | 29km/h | 17792m | 3.5m/s | 0°C | 0% | 0hPa | 0V | 00:00:00 | 00:00:00 | 00:00:00 | |
| OE3JTB-15 | 2026-08-30 12:29:19 | 46.02410 | 15.06254 | 31° | 27km/h | 17741m | 6.3m/s | 0°C | 0% | 0hPa | 0V | 00:00:00 | 00:00:00 | 00:00:00 | |
| 9A1FER-3 | 2026-08-30 12:29:16 | 46.02410 | 15.06254 | 31° | 29km/h | 17741m | 6.3m/s | 0°C | 0% | 0hPa | 0V | 00:00:00 | 00:00:00 | 00:00:00 | |
| 9A1FER-10 | 2026-08-30 12:29:11 | 46.02380 | 15.06224 | 34° | 27km/h | 17716m | 6.4m/s | 0°C | 0% | 0hPa | 0V | 00:00:00 | 00:00:00 | 00:00:00 | |
| 9A1FER-3 | 2026-08-30 12:29:01 | 46.02318 | 15.06173 | 21° | 24km/h | 17667m | 5.1m/s | 0°C | 0% | 0hPa | 0V | 00:00:00 | 00:00:00 | 00:00:00 | |
| 9A1FER-10 | 2026-08-30 12:28:56 | 46.02286 | 15.06169 | 3° | 24km/h | 17643m | 4.8m/s | 0°C | 0% | 0hPa | 0V | 00:00:00 | 00:00:00 | 00:00:00 | |
| OE3JTB-15 | 2026-08-30 12:28:49 | 46.02244 | 15.06156 | 9° | 18km/h | 17608m | 3.6m/s | 0°C | 0% | 0hPa | 0V | 00:00:00 | 00:00:00 | 00:00:00 | |
| 9A1FER-3 | 2026-08-30 12:28:46 | 46.02227 | 15.06153 | 14° | 20km/h | 17593m | 4.9m/s | 0°C | 0% | 0hPa | 0V | 00:00:00 | 00:00:00 | 00:00:00 | |
| 9A1FER-3 | 2026-08-30 12:28:31 | 46.02156 | 15.06149 | 351° | 16km/h | 17519m | 6.2m/s | 0°C | 0% | 0hPa | 0V | 00:00:00 | 00:00:00 | 00:00:00 | |
| 9A1FER-10 | 2026-08-30 12:28:26 | 46.02138 | 15.06151 | 22° | 16km/h | 17493m | 5.6m/s | 0°C | 0% | 0hPa | 0V | 00:00:00 | 00:00:00 | 00:00:00 | |
| OE3JTB-15 | 2026-08-30 12:28:18 | 46.02106 | 15.06176 | 317° | 9km/h | 17454m | 5.7m/s | 0°C | 0% | 0hPa | 0V | 00:00:00 | 00:00:00 | 00:00:00 | |
| 9A1FER-3 | 2026-08-30 12:28:16 | 46.02100 | 15.06182 | 339° | 11km/h | 17444m | 5.2m/s | 0°C | 0% | 0hPa | 0V | 00:00:00 | 00:00:00 | 00:00:00 | |
| 9A1FER-10 | 2026-08-30 12:28:11 | 46.02085 | 15.06189 | 300° | 7km/h | 17420m | 4.4m/s | 0°C | 0% | 0hPa | 0V | 00:00:00 | 00:00:00 | 00:00:00 | |
| 9A1FER-3 | 2026-08-30 12:28:01 | 46.02069 | 15.06214 | 252° | 5km/h | 17372m | 4.3m/s | 0°C | 0% | 0hPa | 0V | 00:00:00 | 00:00:00 | 00:00:00 | |
| 9A1FER-10 | 2026-08-30 12:27:56 | 46.02071 | 15.06213 | 87° | 9km/h | 17347m | 5.7m/s | 0°C | 0% | 0hPa | 0V | 00:00:00 | 00:00:00 | 00:00:00 | |
| OE3JTB-15 | 2026-08-30 12:27:49 | 46.02079 | 15.06206 | 207° | 13km/h | 17314m | 4.3m/s | 0°C | 0% | 0hPa | 0V | 00:00:00 | 00:00:00 | 00:00:00 | |
| 9A1FER-3 | 2026-08-30 12:27:46 | 46.02086 | 15.06210 | 205° | 15km/h | 17299m | 6.3m/s | 0°C | 0% | 0hPa | 0V | 00:00:00 | 00:00:00 | 00:00:00 | |
| 9A1FER-10 | 2026-08-30 12:27:41 | 46.02097 | 15.06198 | 135° | 15km/h | 17274m | 5.1m/s | 0°C | 0% | 0hPa | 0V | 00:00:00 | 00:00:00 | 00:00:00 | |
| 9A1FER-3 | 2026-08-30 12:27:31 | 46.02124 | 15.06158 | 116° | 15km/h | 17227m | 4.0m/s | 0°C | 0% | 0hPa | 0V | 00:00:00 | 00:00:00 | 00:00:00 | |
| 9A1FER-10 | 2026-08-30 12:27:26 | 46.02137 | 15.06147 | 138° | 16km/h | 17202m | 5.4m/s | 0°C | 0% | 0hPa | 0V | 00:00:00 | 00:00:00 | 00:00:00 | |
| OE3JTB-15 | 2026-08-30 12:27:20 | 46.02146 | 15.06114 | 125° | 18km/h | 17175m | 3.8m/s | 0°C | 0% | 0hPa | 0V | 00:00:00 | 00:00:00 | 00:00:00 | |
| 9A1FER-3 | 2026-08-30 12:27:16 | 46.02153 | 15.06092 | 112° | 16km/h | 17155m | 6.1m/s | 0°C | 0% | 0hPa | 0V | 00:00:00 | 00:00:00 | 00:00:00 | |
| 9A1FER-10 | 2026-08-30 12:27:11 | 46.02153 | 15.06066 | 93° | 18km/h | 17132m | 5.2m/s | 0°C | 0% | 0hPa | 0V | 00:00:00 | 00:00:00 | 00:00:00 | |
| 9A1FER-10 | 2026-08-30 12:26:56 | 46.02174 | 15.05967 | 126° | 26km/h | 17061m | 3.7m/s | 0°C | 0% | 0hPa | 0V | 00:00:00 | 00:00:00 | 00:00:00 | |
| OE3JTB-15 | 2026-08-30 12:26:51 | 46.02183 | 15.05932 | 104° | 24km/h | 17037m | 4.3m/s | 0°C | 0% | 0hPa | 0V | 00:00:00 | 00:00:00 | 00:00:00 | |
| 9A1FER-3 | 2026-08-30 12:26:46 | 46.02195 | 15.05875 | 121° | 26km/h | 17012m | 4.7m/s | 0°C | 0% | 0hPa | 0V | 00:00:00 | 00:00:00 | 00:00:00 | |
| 9A1FER-10 | 2026-08-30 12:26:41 | 46.02209 | 15.05833 | 100° | 22km/h | 16990m | 4.5m/s | 0°C | 0% | 0hPa | 0V | 00:00:00 | 00:00:00 | 00:00:00 | |
| 9A1FER-3 | 2026-08-30 12:26:31 | 46.02226 | 15.05747 | 111° | 18km/h | 16943m | 5.1m/s | 0°C | 0% | 0hPa | 0V | 00:00:00 | 00:00:00 | 00:00:00 | |
| 9A1FER-10 | 2026-08-30 12:26:26 | 46.02232 | 15.05717 | 101° | 20km/h | 16917m | 6.0m/s | 0°C | 0% | 0hPa | 0V | 00:00:00 | 00:00:00 | 00:00:00 | |
| OE3JTB-15 | 2026-08-30 12:26:22 | 46.02237 | 15.05690 | 113° | 24km/h | 16898m | 4.5m/s | 0°C | 0% | 0hPa | 0V | 00:00:00 | 00:00:00 | 00:00:00 | |
| 9A1FER-3 | 2026-08-30 12:26:16 | 46.02238 | 15.05648 | 83° | 26km/h | 16867m | 4.3m/s | 0°C | 0% | 0hPa | 0V | 00:00:00 | 00:00:00 | 00:00:00 | |
| 9A1FER-10 | 2026-08-30 12:26:11 | 46.02238 | 15.05605 | 80° | 26km/h | 16843m | 4.2m/s | 0°C | 0% | 0hPa | 0V | 00:00:00 | 00:00:00 | 00:00:00 | |
| 9A1FER-3 | 2026-08-30 12:26:01 | 46.02217 | 15.05517 | 68° | 26km/h | 16793m | 3.8m/s | 0°C | 0% | 0hPa | 0V | 00:00:00 | 00:00:00 | 00:00:00 | |
| 9A1FER-10 | 2026-08-30 12:25:56 | 46.02204 | 15.05473 | 65° | 29km/h | 16769m | 3.0m/s | 0°C | 0% | 0hPa | 0V | 00:00:00 | 00:00:00 | 00:00:00 | |
| OE3JTB-15 | 2026-08-30 12:25:53 | 46.02200 | 15.05438 | 88° | 37km/h | 16754m | 6.6m/s | 0°C | 0% | 0hPa | 0V | 00:00:00 | 00:00:00 | 00:00:00 | |
| 9A1FER-3 | 2026-08-30 12:25:46 | 46.02198 | 15.05379 | 74° | 35km/h | 16720m | 4.3m/s | 0°C | 0% | 0hPa | 0V | 00:00:00 | 00:00:00 | 00:00:00 | |
| 9A1FER-10 | 2026-08-30 12:25:41 | 46.02193 | 15.05320 | 90° | 38km/h | 16693m | 7.8m/s | 0°C | 0% | 0hPa | 0V | 00:00:00 | 00:00:00 | 00:00:00 | |
| 9A1FER-3 | 2026-08-30 12:25:30 | 46.02205 | 15.05171 | 93° | 38km/h | 16634m | 6.0m/s | 0°C | 0% | 0hPa | 0V | 00:00:00 | 00:00:00 | 00:00:00 | |
| 9A1FER-10 | 2026-08-30 12:25:26 | 46.02205 | 15.05114 | 101° | 42km/h | 16613m | 4.3m/s | 0°C | 0% | 0hPa | 0V | 00:00:00 | 00:00:00 | 00:00:00 | |
| OE3JTB-15 | 2026-08-30 12:25:23 | 46.02211 | 15.05067 | 101° | 44km/h | 16599m | 3.5m/s | 0°C | 0% | 0hPa | 0V | 00:00:00 | 00:00:00 | 00:00:00 | |
| 9A1FER-3 | 2026-08-30 12:25:15 | 46.02226 | 15.04951 | 99° | 46km/h | 16559m | 5.6m/s | 0°C | 0% | 0hPa | 0V | 00:00:00 | 00:00:00 | 00:00:00 | |
| 9A1FER-10 | 2026-08-30 12:25:11 | 46.02238 | 15.04892 | 107° | 46km/h | 16539m | 5.6m/s | 0°C | 0% | 0hPa | 0V | 00:00:00 | 00:00:00 | 00:00:00 | |
| 9A1FER-3 | 2026-08-30 12:24:59 | 46.02264 | 15.04697 | 100° | 49km/h | 16481m | 3.4m/s | 0°C | 0% | 0hPa | 0V | 00:00:00 | 00:00:00 | 00:00:00 | |
| 9A1FER-10 | 2026-08-30 12:24:56 | 46.02266 | 15.04648 | 93° | 51km/h | 16467m | 4.5m/s | 0°C | 0% | 0hPa | 0V | 00:00:00 | 00:00:00 | 00:00:00 | |
| OE3JTB-15 | 2026-08-30 12:24:54 | 46.02267 | 15.04613 | 92° | 53km/h | 16458m | 4.5m/s | 0°C | 0% | 0hPa | 0V | 00:00:00 | 00:00:00 | 00:00:00 | |
| 9A1FER-3 | 2026-08-30 12:24:44 | 46.02279 | 15.04431 | 89° | 55km/h | 16410m | 4.4m/s | 0°C | 0% | 0hPa | 0V | 00:00:00 | 00:00:00 | 00:00:00 | |
| 9A1FER-10 | 2026-08-30 12:24:41 | 46.02278 | 15.04368 | 92° | 55km/h | 16394m | 6.2m/s | 0°C | 0% | 0hPa | 0V | 00:00:00 | 00:00:00 | 00:00:00 | |
| 9A1FER-3 | 2026-08-30 12:24:29 | 46.02284 | 15.04130 | 88° | 49km/h | 16333m | 3.7m/s | 0°C | 0% | 0hPa | 0V | 00:00:00 | 00:00:00 | 00:00:00 | |
| 9A1FER-10 | 2026-08-30 12:24:26 | 46.02284 | 15.04075 | 93° | 49km/h | 16319m | 4.5m/s | 0°C | 0% | 0hPa | 0V | 00:00:00 | 00:00:00 | 00:00:00 | |
| OE3JTB-15 | 2026-08-30 12:24:25 | 46.02284 | 15.04057 | 91° | 49km/h | 16314m | 5.0m/s | 0°C | 0% | 0hPa | 0V | 00:00:00 | 00:00:00 | 00:00:00 | |
| 9A1FER-3 | 2026-08-30 12:24:14 | 46.02271 | 15.03862 | 86° | 51km/h | 16261m | 5.3m/s | 0°C | 0% | 0hPa | 0V | 00:00:00 | 00:00:00 | 00:00:00 | |
| 9A1FER-10 | 2026-08-30 12:24:11 | 46.02264 | 15.03809 | 77° | 49km/h | 16247m | 4.8m/s | 0°C | 0% | 0hPa | 0V | 00:00:00 | 00:00:00 | 00:00:00 | |
| 9A1FER-3 | 2026-08-30 12:23:59 | 46.02233 | 15.03593 | 81° | 47km/h | 16190m | 4.0m/s | 0°C | 0% | 0hPa | 0V | 00:00:00 | 00:00:00 | 00:00:00 | |
| 9A1FER-10 | 2026-08-30 12:23:56 | 46.02228 | 15.03543 | 81° | 47km/h | 16177m | 3.0m/s | 0°C | 0% | 0hPa | 0V | 00:00:00 | 00:00:00 | 00:00:00 | |
| 9A1FER-3 | 2026-08-30 12:23:44 | 46.02202 | 15.03343 | 84° | 44km/h | 16122m | 4.9m/s | 0°C | 0% | 0hPa | 0V | 00:00:00 | 00:00:00 | 00:00:00 | |
| 9A1FER-10 | 2026-08-30 12:23:41 | 46.02199 | 15.03292 | 85° | 40km/h | 16107m | 5.4m/s | 0°C | 0% | 0hPa | 0V | 00:00:00 | 00:00:00 | 00:00:00 | |
| 9A1FER-3 | 2026-08-30 12:23:29 | 46.02192 | 15.03111 | 91° | 37km/h | 16050m | 4.3m/s | 0°C | 0% | 0hPa | 0V | 00:00:00 | 00:00:00 | 00:00:00 | |
| OE3JTB-15 | 2026-08-30 12:23:28 | 46.02191 | 15.03083 | 90° | 51km/h | 16040m | 3.7m/s | 0°C | 0% | 0hPa | 0V | 00:00:00 | 00:00:00 | 00:00:00 | |
| 9A1FER-10 | 2026-08-30 12:23:26 | 46.02192 | 15.03071 | 98° | 38km/h | 16036m | 5.9m/s | 0°C | 0% | 0hPa | 0V | 00:00:00 | 00:00:00 | 00:00:00 | |
| 9A1FER-3 | 2026-08-30 12:23:14 | 46.02203 | 15.02915 | 103° | 47km/h | 15977m | 6.0m/s | 0°C | 0% | 0hPa | 0V | 00:00:00 | 00:00:00 | 00:00:00 | |
| 9A1FER-10 | 2026-08-30 12:23:11 | 46.02210 | 15.02865 | 101° | 47km/h | 15962m | 5.5m/s | 0°C | 0% | 0hPa | 0V | 00:00:00 | 00:00:00 | 00:00:00 | |
| 9A1FER-3 | 2026-08-30 12:22:59 | 46.02230 | 15.02660 | 93° | 57km/h | 15902m | 3.8m/s | 0°C | 0% | 0hPa | 0V | 00:00:00 | 00:00:00 | 00:00:00 | |
| 9A1FER-10 | 2026-08-30 12:22:56 | 46.02235 | 15.02609 | 103° | 58km/h | 15888m | 4.6m/s | 0°C | 0% | 0hPa | 0V | 00:00:00 | 00:00:00 | 00:00:00 | |
| HA6NAB-11 | 2026-08-30 12:22:49 | 46.02245 | 15.02464 | 92° | 60km/h | 15856m | 4.0m/s | 0°C | 0% | 0hPa | 0V | 00:00:00 | 00:00:00 | 00:00:00 | |
| HA6NAB-11 | 2026-08-30 12:22:43 | 46.02251 | 15.02339 | 93° | 62km/h | 15828m | 3.5m/s | 0°C | 0% | 0hPa | 0V | 00:00:00 | 00:00:00 | 00:00:00 | |
| 9A1FER-3 | 2026-08-30 12:22:42 | 46.02251 | 15.02316 | 89° | 62km/h | 15824m | 5.7m/s | 0°C | 0% | 0hPa | 0V | 00:00:00 | 00:00:00 | 00:00:00 | |
| 9A1FER-10 | 2026-08-30 12:22:41 | 46.02250 | 15.02292 | 86° | 62km/h | 15819m | 4.2m/s | 0°C | 0% | 0hPa | 0V | 00:00:00 | 00:00:00 | 00:00:00 | |
| HA6NAB-11 | 2026-08-30 12:22:37 | 46.02248 | 15.02197 | 89° | 64km/h | 15800m | 3.4m/s | 0°C | 0% | 0hPa | 0V | 00:00:00 | 00:00:00 | 00:00:00 | |
| OE3JTB-15 | 2026-08-30 12:22:36 | 46.02248 | 15.02174 | 92° | 58km/h | 15795m | 5.9m/s | 0°C | 0% | 0hPa | 0V | 00:00:00 | 00:00:00 | 00:00:00 | |
| HA6NAB-11 | 2026-08-30 12:22:31 | 46.02247 | 15.02061 | 91° | 62km/h | 15772m | 5.1m/s | 0°C | 0% | 0hPa | 0V | 00:00:00 | 00:00:00 | 00:00:00 | |
| 9A1FER-3 | 2026-08-30 12:22:26 | 46.02247 | 15.01957 | 90° | 57km/h | 15749m | 3.5m/s | 0°C | 0% | 0hPa | 0V | 00:00:00 | 00:00:00 | 00:00:00 | |
| HA6NAB-11 | 2026-08-30 12:22:23 | 46.02245 | 15.01892 | 87° | 58km/h | 15736m | 4.0m/s | 0°C | 0% | 0hPa | 0V | 00:00:00 | 00:00:00 | 00:00:00 | |
| 9A1FER-3 | 2026-08-30 12:22:11 | 46.02230 | 15.01651 | 87° | 51km/h | 15680m | 4.3m/s | 0°C | 0% | 0hPa | 0V | 00:00:00 | 00:00:00 | 00:00:00 | |
| OE3JTB-15 | 2026-08-30 12:21:59 | 46.02204 | 15.01427 | 85° | 44km/h | 15625m | 6.1m/s | 0°C | 0% | 0hPa | 0V | 00:00:00 | 00:00:00 | 00:00:00 | |
| 9A1FER-3 | 2026-08-30 12:21:57 | 46.02199 | 15.01373 | 78° | 46km/h | 15610m | 3.1m/s | 0°C | 0% | 0hPa | 0V | 00:00:00 | 00:00:00 | 00:00:00 | |
| 9A1FER-10 | 2026-08-30 12:21:56 | 46.02199 | 15.01373 | 78° | 46km/h | 15610m | 3.1m/s | 0°C | 0% | 0hPa | 0V | 00:00:00 | 00:00:00 | 00:00:00 | |
| 9A1FER-3 | 2026-08-30 12:21:41 | 46.02152 | 15.01134 | 65° | 42km/h | 15543m | 4.5m/s | 0°C | 0% | 0hPa | 0V | 00:00:00 | 00:00:00 | 00:00:00 | |
| 9A1FER-10 | 2026-08-30 12:21:26 | 46.02116 | 15.00918 | 78° | 46km/h | 15476m | 4.9m/s | 0°C | 0% | 0hPa | 0V | 00:00:00 | 00:00:00 | 00:00:00 | |
| 9A1FER-3 | 2026-08-30 12:21:25 | 46.02113 | 15.00901 | 77° | 46km/h | 15471m | 4.0m/s | 0°C | 0% | 0hPa | 0V | 00:00:00 | 00:00:00 | 00:00:00 | |
| OE3JTB-15 | 2026-08-30 12:21:21 | 46.02100 | 15.00833 | 72° | 60km/h | 15453m | 2.2m/s | 0°C | 0% | 0hPa | 0V | 00:00:00 | 00:00:00 | 00:00:00 | |
| 9A1FER-10 | 2026-08-30 12:21:11 | 46.02075 | 15.00674 | 76° | 42km/h | 15406m | 5.6m/s | 0°C | 0% | 0hPa | 0V | 00:00:00 | 00:00:00 | 00:00:00 | |
| 9A1FER-3 | 2026-08-30 12:21:10 | 46.02073 | 15.00658 | 79° | 42km/h | 15402m | 3.4m/s | 0°C | 0% | 0hPa | 0V | 00:00:00 | 00:00:00 | 00:00:00 | |
| 9A1FER-10 | 2026-08-30 12:20:56 | 46.02044 | 15.00450 | 85° | 42km/h | 15339m | 4.4m/s | 0°C | 0% | 0hPa | 0V | 00:00:00 | 00:00:00 | 00:00:00 | |
| 9A1FER-3 | 2026-08-30 12:20:55 | 46.02043 | 15.00434 | 89° | 44km/h | 15335m | 4.4m/s | 0°C | 0% | 0hPa | 0V | 00:00:00 | 00:00:00 | 00:00:00 | |
| 9A1FER-10 | 2026-08-30 12:20:41 | 46.02026 | 15.00218 | 73° | 42km/h | 15273m | 6.1m/s | 0°C | 0% | 0hPa | 0V | 00:00:00 | 00:00:00 | 00:00:00 | |
| 9A1FER-3 | 2026-08-30 12:20:40 | 46.02022 | 15.00203 | 72° | 40km/h | 15268m | 3.5m/s | 0°C | 0% | 0hPa | 0V | 00:00:00 | 00:00:00 | 00:00:00 | |
| 9A1FER-10 | 2026-08-30 12:20:26 | 46.01990 | 15.00003 | 77° | 35km/h | 15207m | 3.4m/s | 0°C | 0% | 0hPa | 0V | 00:00:00 | 00:00:00 | 00:00:00 | |
| 9A1FER-3 | 2026-08-30 12:20:25 | 46.01988 | 14.99991 | 82° | 35km/h | 15203m | 4.7m/s | 0°C | 0% | 0hPa | 0V | 00:00:00 | 00:00:00 | 00:00:00 | |
| 9A1FER-3 | 2026-08-30 12:20:10 | 46.01979 | 14.99804 | 96° | 31km/h | 15132m | 5.0m/s | 0°C | 0% | 0hPa | 0V | 00:00:00 | 00:00:00 | 00:00:00 | |
| 9A1FER-3 | 2026-08-30 12:19:55 | 46.01987 | 14.99636 | 110° | 31km/h | 15064m | 3.7m/s | 0°C | 0% | 0hPa | 0V | 00:00:00 | 00:00:00 | 00:00:00 | |
| 9A1FER-10 | 2026-08-30 12:19:40 | 46.02024 | 14.99475 | 107° | 40km/h | 14996m | 3.7m/s | 0°C | 0% | 0hPa | 0V | 00:00:00 | 00:00:00 | 00:00:00 | |
| 9A1FER-3 | 2026-08-30 12:19:25 | 46.02088 | 14.99275 | 117° | 51km/h | 14927m | 5.0m/s | 0°C | 0% | 0hPa | 0V | 00:00:00 | 00:00:00 | 00:00:00 | |
| 9A1FER-10 | 2026-08-30 12:19:10 | 46.02184 | 14.99027 | 124° | 60km/h | 14854m | 3.7m/s | 0°C | 0% | 0hPa | 0V | 00:00:00 | 00:00:00 | 00:00:00 | |
| 9A1FER-10 | 2026-08-30 12:18:55 | 46.02293 | 14.98734 | 118° | 68km/h | 14783m | 2.8m/s | 0°C | 0% | 0hPa | 0V | 00:00:00 | 00:00:00 | 00:00:00 | |
| 9A1FER-3 | 2026-08-30 12:18:40 | 46.02400 | 14.98401 | 109° | 66km/h | 14716m | 4.6m/s | 0°C | 0% | 0hPa | 0V | 00:00:00 | 00:00:00 | 00:00:00 | |
| OE3JTB-15 | 2026-08-30 12:18:29 | 46.02459 | 14.98121 | 103° | 71km/h | 14658m | 4.6m/s | 0°C | 0% | 0hPa | 0V | 00:00:00 | 00:00:00 | 00:00:00 | |
| 9A1FER-10 | 2026-08-30 12:18:25 | 46.02472 | 14.98053 | 109° | 69km/h | 14645m | 2.9m/s | 0°C | 0% | 0hPa | 0V | 00:00:00 | 00:00:00 | 00:00:00 | |
| 9A1FER-3 | 2026-08-30 12:18:24 | 46.02477 | 14.98031 | 106° | 69km/h | 14641m | 5.1m/s | 0°C | 0% | 0hPa | 0V | 00:00:00 | 00:00:00 | 00:00:00 | |
| 9A1FER-10 | 2026-08-30 12:18:10 | 46.02521 | 14.97678 | 100° | 75km/h | 14576m | 4.1m/s | 0°C | 0% | 0hPa | 0V | 00:00:00 | 00:00:00 | 00:00:00 | |
| 9A1FER-3 | 2026-08-30 12:18:09 | 46.02524 | 14.97653 | 101° | 75km/h | 14572m | 5.3m/s | 0°C | 0% | 0hPa | 0V | 00:00:00 | 00:00:00 | 00:00:00 | |
| OE3JTB-15 | 2026-08-30 12:18:00 | 46.02540 | 14.97411 | 94° | 78km/h | 14530m | 5.4m/s | 0°C | 0% | 0hPa | 0V | 00:00:00 | 00:00:00 | 00:00:00 | |
| 9A1FER-10 | 2026-08-30 12:17:55 | 46.02547 | 14.97274 | 95° | 80km/h | 14508m | 5.2m/s | 0°C | 0% | 0hPa | 0V | 00:00:00 | 00:00:00 | 00:00:00 | |
| 9A1FER-3 | 2026-08-30 12:17:54 | 46.02548 | 14.97246 | 95° | 80km/h | 14503m | 4.2m/s | 0°C | 0% | 0hPa | 0V | 00:00:00 | 00:00:00 | 00:00:00 | |
| 9A1FER-3 | 2026-08-30 12:17:38 | 46.02550 | 14.96778 | 83° | 82km/h | 14430m | 4.6m/s | 0°C | 0% | 0hPa | 0V | 00:00:00 | 00:00:00 | 00:00:00 | |
| 9A1FER-10 | 2026-08-30 12:17:25 | 46.02525 | 14.96393 | 83° | 78km/h | 14371m | 4.4m/s | 0°C | 0% | 0hPa | 0V | 00:00:00 | 00:00:00 | 00:00:00 | |
| 9A1FER-3 | 2026-08-30 12:17:23 | 46.02521 | 14.96336 | 86° | 77km/h | 14361m | 5.1m/s | 0°C | 0% | 0hPa | 0V | 00:00:00 | 00:00:00 | 00:00:00 | |
| 9A1FER-10 | 2026-08-30 12:17:10 | 46.02483 | 14.95972 | 83° | 73km/h | 14301m | 3.2m/s | 0°C | 0% | 0hPa | 0V | 00:00:00 | 00:00:00 | 00:00:00 | |
| OE3JTB-15 | 2026-08-30 12:17:09 | 46.02481 | 14.95945 | 83° | 73km/h | 14297m | 4.7m/s | 0°C | 0% | 0hPa | 0V | 00:00:00 | 00:00:00 | 00:00:00 | |
| 9A1FER-3 | 2026-08-30 12:17:08 | 46.02479 | 14.95919 | 87° | 71km/h | 14292m | 4.3m/s | 0°C | 0% | 0hPa | 0V | 00:00:00 | 00:00:00 | 00:00:00 | |
| 9A1FER-10 | 2026-08-30 12:16:55 | 46.02461 | 14.95579 | 86° | 69km/h | 14231m | 4.8m/s | 0°C | 0% | 0hPa | 0V | 00:00:00 | 00:00:00 | 00:00:00 | |
| 9A1FER-3 | 2026-08-30 12:16:53 | 46.02457 | 14.95529 | 84° | 69km/h | 14221m | 5.5m/s | 0°C | 0% | 0hPa | 0V | 00:00:00 | 00:00:00 | 00:00:00 | |
| 9A1FER-10 | 2026-08-30 12:16:40 | 46.02432 | 14.95200 | 81° | 68km/h | 14161m | 3.0m/s | 0°C | 0% | 0hPa | 0V | 00:00:00 | 00:00:00 | 00:00:00 | |
| 9A1FER-3 | 2026-08-30 12:16:38 | 46.02424 | 14.95153 | 76° | 66km/h | 14151m | 3.9m/s | 0°C | 0% | 0hPa | 0V | 00:00:00 | 00:00:00 | 00:00:00 | |
| 9A1FER-10 | 2026-08-30 12:16:25 | 46.02386 | 14.94843 | 82° | 66km/h | 14095m | 4.0m/s | 0°C | 0% | 0hPa | 0V | 00:00:00 | 00:00:00 | 00:00:00 | |
| 9A1FER-3 | 2026-08-30 12:16:23 | 46.02382 | 14.94796 | 85° | 64km/h | 14086m | 4.1m/s | 0°C | 0% | 0hPa | 0V | 00:00:00 | 00:00:00 | 00:00:00 | |
| 9A1FER-10 | 2026-08-30 12:16:10 | 46.02371 | 14.94490 | 93° | 66km/h | 14029m | 5.8m/s | 0°C | 0% | 0hPa | 0V | 00:00:00 | 00:00:00 | 00:00:00 | |
| 9A1FER-3 | 2026-08-30 12:16:09 | 46.02374 | 14.94446 | 97° | 68km/h | 14020m | 5.3m/s | 0°C | 0% | 0hPa | 0V | 00:00:00 | 00:00:00 | 00:00:00 | |
| 9A1FER-10 | 2026-08-30 12:15:55 | 46.02384 | 14.94132 | 94° | 69km/h | 13963m | 3.2m/s | 0°C | 0% | 0hPa | 0V | 00:00:00 | 00:00:00 | 00:00:00 | |
| 9A1FER-3 | 2026-08-30 12:15:53 | 46.02386 | 14.94082 | 96° | 69km/h | 13955m | 3.5m/s | 0°C | 0% | 0hPa | 0V | 00:00:00 | 00:00:00 | 00:00:00 | |
| 9A1FER-10 | 2026-08-30 12:15:40 | 46.02395 | 14.93754 | 90° | 71km/h | 13900m | 3.8m/s | 0°C | 0% | 0hPa | 0V | 00:00:00 | 00:00:00 | 00:00:00 | |
| 9A1FER-3 | 2026-08-30 12:15:38 | 46.02394 | 14.93701 | 87° | 69km/h | 13891m | 3.6m/s | 0°C | 0% | 0hPa | 0V | 00:00:00 | 00:00:00 | 00:00:00 | |
| 9A1FER-10 | 2026-08-30 12:15:25 | 46.02389 | 14.93370 | 91° | 69km/h | 13834m | 4.3m/s | 0°C | 0% | 0hPa | 0V | 00:00:00 | 00:00:00 | 00:00:00 | |
| 9A1FER-3 | 2026-08-30 12:15:23 | 46.02389 | 14.93324 | 93° | 69km/h | 13825m | 3.2m/s | 0°C | 0% | 0hPa | 0V | 00:00:00 | 00:00:00 | 00:00:00 | |
| 9A1FER-10 | 2026-08-30 12:15:10 | 46.02422 | 14.92997 | 103° | 71km/h | 13766m | 4.3m/s | 0°C | 0% | 0hPa | 0V | 00:00:00 | 00:00:00 | 00:00:00 | |
| 9A1FER-3 | 2026-08-30 12:15:08 | 46.02430 | 14.92946 | 100° | 71km/h | 13757m | 3.1m/s | 0°C | 0% | 0hPa | 0V | 00:00:00 | 00:00:00 | 00:00:00 | |
| 9A1FER-10 | 2026-08-30 12:14:54 | 46.02460 | 14.92588 | 97° | 73km/h | 13696m | 4.1m/s | 0°C | 0% | 0hPa | 0V | 00:00:00 | 00:00:00 | 00:00:00 | |
| 9A1FER-3 | 2026-08-30 12:14:53 | 46.02463 | 14.92562 | 99° | 73km/h | 13691m | 5.4m/s | 0°C | 0% | 0hPa | 0V | 00:00:00 | 00:00:00 | 00:00:00 | |
| 9A1FER-3 | 2026-08-30 12:14:38 | 46.02514 | 14.92176 | 101° | 78km/h | 13625m | 5.0m/s | 0°C | 0% | 0hPa | 0V | 00:00:00 | 00:00:00 | 00:00:00 | |
| 9A1FER-10 | 2026-08-30 12:14:23 | 46.02580 | 14.91753 | 103° | 78km/h | 13557m | 5.3m/s | 0°C | 0% | 0hPa | 0V | 00:00:00 | 00:00:00 | 00:00:00 | |
| OE3JTB-15 | 2026-08-30 12:14:21 | 46.02590 | 14.91696 | 104° | 77km/h | 13547m | 5.2m/s | 0°C | 0% | 0hPa | 0V | 00:00:00 | 00:00:00 | 00:00:00 | |
| 9A1FER-3 | 2026-08-30 12:14:08 | 46.02642 | 14.91334 | 99° | 84km/h | 13490m | 3.5m/s | 0°C | 0% | 0hPa | 0V | 00:00:00 | 00:00:00 | 00:00:00 | |
| 9A1FER-10 | 2026-08-30 12:13:53 | 46.02700 | 14.90881 | 98° | 86km/h | 13425m | 3.9m/s | 0°C | 0% | 0hPa | 0V | 00:00:00 | 00:00:00 | 00:00:00 | |
| 9A1FER-3 | 2026-08-30 12:13:38 | 46.02740 | 14.90417 | 97° | 89km/h | 13358m | 4.6m/s | 0°C | 0% | 0hPa | 0V | 00:00:00 | 00:00:00 | 00:00:00 | |
| 9A1FER-3 | 2026-08-30 12:13:23 | 46.02760 | 14.89936 | 93° | 88km/h | 13294m | 4.1m/s | 0°C | 0% | 0hPa | 0V | 00:00:00 | 00:00:00 | 00:00:00 | |
| OE3JTB-15 | 2026-08-30 12:13:09 | 46.02744 | 14.89456 | 85° | 88km/h | 13222m | 3.8m/s | 0°C | 0% | 0hPa | 0V | 00:00:00 | 00:00:00 | 00:00:00 | |
| 9A1FER-3 | 2026-08-30 12:13:08 | 46.02744 | 14.89456 | 85° | 88km/h | 13222m | 3.8m/s | 0°C | 0% | 0hPa | 0V | 00:00:00 | 00:00:00 | 00:00:00 | |
| 9A1FER-10 | 2026-08-30 12:13:07 | 46.02742 | 14.89424 | 87° | 88km/h | 13217m | 5.4m/s | 0°C | 0% | 0hPa | 0V | 00:00:00 | 00:00:00 | 00:00:00 | |
| 9A1FER-3 | 2026-08-30 12:12:53 | 46.02718 | 14.88984 | 86° | 88km/h | 13154m | 4.5m/s | 0°C | 0% | 0hPa | 0V | 00:00:00 | 00:00:00 | 00:00:00 | |
| 9A1FER-10 | 2026-08-30 12:12:52 | 46.02716 | 14.88954 | 86° | 89km/h | 13150m | 3.9m/s | 0°C | 0% | 0hPa | 0V | 00:00:00 | 00:00:00 | 00:00:00 | |
| OE3JTB-15 | 2026-08-30 12:12:39 | 46.02703 | 14.88537 | 89° | 88km/h | 13093m | 4.6m/s | 0°C | 0% | 0hPa | 0V | 00:00:00 | 00:00:00 | 00:00:00 | |
| 9A1FER-3 | 2026-08-30 12:12:38 | 46.02702 | 14.88503 | 88° | 88km/h | 13089m | 4.6m/s | 0°C | 0% | 0hPa | 0V | 00:00:00 | 00:00:00 | 00:00:00 | |
| 9A1FER-10 | 2026-08-30 12:12:37 | 46.02701 | 14.88470 | 88° | 88km/h | 13084m | 4.0m/s | 0°C | 0% | 0hPa | 0V | 00:00:00 | 00:00:00 | 00:00:00 | |
| 9A1FER-3 | 2026-08-30 12:12:23 | 46.02691 | 14.88025 | 89° | 88km/h | 13021m | 3.4m/s | 0°C | 0% | 0hPa | 0V | 00:00:00 | 00:00:00 | 00:00:00 | |
| 9A1FER-10 | 2026-08-30 12:12:22 | 46.02690 | 14.87995 | 87° | 88km/h | 13017m | 5.0m/s | 0°C | 0% | 0hPa | 0V | 00:00:00 | 00:00:00 | 00:00:00 | |
| OE3JTB-15 | 2026-08-30 12:12:09 | 46.02673 | 14.87585 | 88° | 88km/h | 12959m | 4.6m/s | 0°C | 0% | 0hPa | 0V | 00:00:00 | 00:00:00 | 00:00:00 | |
| 9A1FER-3 | 2026-08-30 12:12:08 | 46.02672 | 14.87554 | 87° | 86km/h | 12955m | 4.3m/s | 0°C | 0% | 0hPa | 0V | 00:00:00 | 00:00:00 | 00:00:00 | |
| 9A1FER-10 | 2026-08-30 12:12:07 | 46.02670 | 14.87523 | 85° | 86km/h | 12950m | 4.7m/s | 0°C | 0% | 0hPa | 0V | 00:00:00 | 00:00:00 | 00:00:00 | |
| 9A1FER-3 | 2026-08-30 12:11:53 | 46.02649 | 14.87086 | 88° | 88km/h | 12893m | 3.0m/s | 0°C | 0% | 0hPa | 0V | 00:00:00 | 00:00:00 | 00:00:00 | |
| 9A1FER-10 | 2026-08-30 12:11:52 | 46.02648 | 14.87052 | 91° | 88km/h | 12889m | 4.7m/s | 0°C | 0% | 0hPa | 0V | 00:00:00 | 00:00:00 | 00:00:00 | |
| OE3JTB-15 | 2026-08-30 12:11:40 | 46.02638 | 14.86675 | 91° | 89km/h | 12832m | 6.3m/s | 0°C | 0% | 0hPa | 0V | 00:00:00 | 00:00:00 | 00:00:00 | |
| 9A1FER-3 | 2026-08-30 12:11:38 | 46.02640 | 14.86612 | 94° | 89km/h | 12821m | 5.5m/s | 0°C | 0% | 0hPa | 0V | 00:00:00 | 00:00:00 | 00:00:00 | |
| 9A1FER-10 | 2026-08-30 12:11:37 | 46.02641 | 14.86581 | 90° | 89km/h | 12817m | 4.0m/s | 0°C | 0% | 0hPa | 0V | 00:00:00 | 00:00:00 | 00:00:00 | |
| 9A1FER-3 | 2026-08-30 12:11:23 | 46.02636 | 14.86129 | 91° | 91km/h | 12752m | 3.1m/s | 0°C | 0% | 0hPa | 0V | 00:00:00 | 00:00:00 | 00:00:00 | |
| 9A1FER-10 | 2026-08-30 12:11:22 | 46.02636 | 14.86095 | 89° | 91km/h | 12748m | 5.5m/s | 0°C | 0% | 0hPa | 0V | 00:00:00 | 00:00:00 | 00:00:00 | |
| 9A1FER-3 | 2026-08-30 12:11:08 | 46.02632 | 14.85631 | 90° | 91km/h | 12683m | 5.5m/s | 0°C | 0% | 0hPa | 0V | 00:00:00 | 00:00:00 | 00:00:00 | |
| 9A1FER-10 | 2026-08-30 12:11:07 | 46.02632 | 14.85598 | 90° | 91km/h | 12678m | 3.6m/s | 0°C | 0% | 0hPa | 0V | 00:00:00 | 00:00:00 | 00:00:00 | |
| 9A1FER-10 | 2026-08-30 12:10:52 | 46.02639 | 14.85104 | 92° | 93km/h | 12610m | 5.3m/s | 0°C | 0% | 0hPa | 0V | 00:00:00 | 00:00:00 | 00:00:00 | |
| 9A1FER-3 | 2026-08-30 12:10:38 | 46.02642 | 14.84632 | 93° | 91km/h | 12542m | 4.3m/s | 0°C | 0% | 0hPa | 0V | 00:00:00 | 00:00:00 | 00:00:00 | |
| 9A1FER-10 | 2026-08-30 12:10:37 | 46.02643 | 14.84596 | 92° | 91km/h | 12537m | 5.1m/s | 0°C | 0% | 0hPa | 0V | 00:00:00 | 00:00:00 | 00:00:00 | |
| 9A1FER-3 | 2026-08-30 12:10:23 | 46.02631 | 14.84136 | 88° | 91km/h | 12476m | 5.2m/s | 0°C | 0% | 0hPa | 0V | 00:00:00 | 00:00:00 | 00:00:00 | |
| 9A1FER-10 | 2026-08-30 12:10:22 | 46.02630 | 14.84104 | 89° | 91km/h | 12470m | 6.3m/s | 0°C | 0% | 0hPa | 0V | 00:00:00 | 00:00:00 | 00:00:00 | |
| 9A1FER-3 | 2026-08-30 12:10:08 | 46.02638 | 14.83642 | 97° | 91km/h | 12402m | 5.1m/s | 0°C | 0% | 0hPa | 0V | 00:00:00 | 00:00:00 | 00:00:00 | |
| 9A1FER-10 | 2026-08-30 12:10:07 | 46.02640 | 14.83610 | 97° | 91km/h | 12396m | 6.8m/s | 0°C | 0% | 0hPa | 0V | 00:00:00 | 00:00:00 | 00:00:00 | |
| 9A1FER-3 | 2026-08-30 12:09:53 | 46.02654 | 14.83144 | 94° | 88km/h | 12316m | 3.9m/s | 0°C | 0% | 0hPa | 0V | 00:00:00 | 00:00:00 | 00:00:00 | |
| 9A1FER-10 | 2026-08-30 12:09:52 | 46.02656 | 14.83110 | 96° | 88km/h | 12311m | 6.4m/s | 0°C | 0% | 0hPa | 0V | 00:00:00 | 00:00:00 | 00:00:00 | |
| 9A1FER-3 | 2026-08-30 12:09:38 | 46.02696 | 14.82667 | 93° | 89km/h | 12244m | 5.7m/s | 0°C | 0% | 0hPa | 0V | 00:00:00 | 00:00:00 | 00:00:00 | |
| 9A1FER-10 | 2026-08-30 12:09:37 | 46.02697 | 14.82633 | 96° | 89km/h | 12237m | 7.0m/s | 0°C | 0% | 0hPa | 0V | 00:00:00 | 00:00:00 | 00:00:00 | |
| 9A1FER-3 | 2026-08-30 12:09:23 | 46.02740 | 14.82180 | 104° | 97km/h | 12169m | 5.8m/s | 0°C | 0% | 0hPa | 0V | 00:00:00 | 00:00:00 | 00:00:00 | |
| 9A1FER-10 | 2026-08-30 12:09:22 | 46.02745 | 14.82149 | 105° | 99km/h | 12164m | 4.0m/s | 0°C | 0% | 0hPa | 0V | 00:00:00 | 00:00:00 | 00:00:00 | |
| 9A1FER-3 | 2026-08-30 12:09:08 | 46.02816 | 14.81660 | 103° | 99km/h | 12090m | 4.0m/s | 0°C | 0% | 0hPa | 0V | 00:00:00 | 00:00:00 | 00:00:00 | |
| 9A1FER-10 | 2026-08-30 12:09:07 | 46.02822 | 14.81625 | 103° | 100km/h | 12085m | 4.8m/s | 0°C | 0% | 0hPa | 0V | 00:00:00 | 00:00:00 | 00:00:00 | |
| 9A1FER-3 | 2026-08-30 12:08:53 | 46.02860 | 14.81123 | 99° | 102km/h | 12014m | 5.4m/s | 0°C | 0% | 0hPa | 0V | 00:00:00 | 00:00:00 | 00:00:00 | |
| 9A1FER-10 | 2026-08-30 12:08:52 | 46.02864 | 14.81083 | 97° | 102km/h | 12009m | 3.7m/s | 0°C | 0% | 0hPa | 0V | 00:00:00 | 00:00:00 | 00:00:00 | |
| 9A1FER-3 | 2026-08-30 12:08:38 | 46.02880 | 14.80571 | 95° | 100km/h | 11941m | 4.0m/s | 0°C | 0% | 0hPa | 0V | 00:00:00 | 00:00:00 | 00:00:00 | |
| 9A1FER-10 | 2026-08-30 12:08:37 | 46.02882 | 14.80535 | 94° | 100km/h | 11937m | 4.8m/s | 0°C | 0% | 0hPa | 0V | 00:00:00 | 00:00:00 | 00:00:00 | |
| 9A1FER-3 | 2026-08-30 12:08:23 | 46.02898 | 14.80025 | 94° | 100km/h | 11873m | 5.4m/s | 0°C | 0% | 0hPa | 0V | 00:00:00 | 00:00:00 | 00:00:00 | |
| 9A1FER-10 | 2026-08-30 12:08:22 | 46.02899 | 14.79986 | 91° | 100km/h | 11868m | 3.7m/s | 0°C | 0% | 0hPa | 0V | 00:00:00 | 00:00:00 | 00:00:00 | |
| 9A1FER-3 | 2026-08-30 12:08:08 | 46.02915 | 14.79479 | 98° | 93km/h | 11805m | 6.4m/s | 0°C | 0% | 0hPa | 0V | 00:00:00 | 00:00:00 | 00:00:00 | |
| 9A1FER-10 | 2026-08-30 12:08:07 | 46.02919 | 14.79445 | 103° | 93km/h | 11798m | 5.7m/s | 0°C | 0% | 0hPa | 0V | 00:00:00 | 00:00:00 | 00:00:00 | |
| 9A1FER-3 | 2026-08-30 12:07:53 | 46.02961 | 14.78974 | 93° | 89km/h | 11724m | 4.3m/s | 0°C | 0% | 0hPa | 0V | 00:00:00 | 00:00:00 | 00:00:00 | |
| 9A1FER-10 | 2026-08-30 12:07:52 | 46.02962 | 14.78940 | 93° | 89km/h | 11719m | 4.9m/s | 0°C | 0% | 0hPa | 0V | 00:00:00 | 00:00:00 | 00:00:00 | |
| 9A1FER-3 | 2026-08-30 12:07:38 | 46.03007 | 14.78494 | 100° | 91km/h | 11643m | 4.0m/s | 0°C | 0% | 0hPa | 0V | 00:00:00 | 00:00:00 | 00:00:00 | |
| 9A1FER-10 | 2026-08-30 12:07:37 | 46.03011 | 14.78462 | 103° | 91km/h | 11639m | 2.5m/s | 0°C | 0% | 0hPa | 0V | 00:00:00 | 00:00:00 | 00:00:00 | |
| 9A1FER-3 | 2026-08-30 12:07:23 | 46.03102 | 14.78015 | 114° | 97km/h | 11569m | 3.6m/s | 0°C | 0% | 0hPa | 0V | 00:00:00 | 00:00:00 | 00:00:00 | |
| 9A1FER-10 | 2026-08-30 12:07:22 | 46.03111 | 14.77982 | 111° | 95km/h | 11565m | 4.1m/s | 0°C | 0% | 0hPa | 0V | 00:00:00 | 00:00:00 | 00:00:00 | |
| 9A1FER-3 | 2026-08-30 12:07:08 | 46.03205 | 14.77515 | 101° | 86km/h | 11505m | 7.5m/s | 0°C | 0% | 0hPa | 0V | 00:00:00 | 00:00:00 | 00:00:00 | |
| 9A1FER-10 | 2026-08-30 12:07:07 | 46.03208 | 14.77484 | 99° | 86km/h | 11499m | 5.8m/s | 0°C | 0% | 0hPa | 0V | 00:00:00 | 00:00:00 | 00:00:00 | |
| 9A1FER-3 | 2026-08-30 12:06:53 | 46.03315 | 14.77077 | 112° | 84km/h | 11428m | 5.6m/s | 0°C | 0% | 0hPa | 0V | 00:00:00 | 00:00:00 | 00:00:00 | |
| 9A1FER-10 | 2026-08-30 12:06:52 | 46.03324 | 14.77047 | 113° | 82km/h | 11424m | 3.4m/s | 0°C | 0% | 0hPa | 0V | 00:00:00 | 00:00:00 | 00:00:00 | |
| 9A1FER-3 | 2026-08-30 12:06:38 | 46.03413 | 14.76648 | 110° | 78km/h | 11342m | 4.5m/s | 0°C | 0% | 0hPa | 0V | 00:00:00 | 00:00:00 | 00:00:00 | |
| 9A1FER-3 | 2026-08-30 12:06:23 | 46.03529 | 14.76257 | 118° | 78km/h | 11253m | 5.6m/s | 0°C | 0% | 0hPa | 0V | 00:00:00 | 00:00:00 | 00:00:00 | |
| 9A1FER-10 | 2026-08-30 12:06:22 | 46.03538 | 14.76232 | 119° | 78km/h | 11247m | 5.3m/s | 0°C | 0% | 0hPa | 0V | 00:00:00 | 00:00:00 | 00:00:00 | |
| 9A1FER-3 | 2026-08-30 12:06:08 | 46.03660 | 14.75878 | 117° | 78km/h | 11177m | 5.4m/s | 0°C | 0% | 0hPa | 0V | 00:00:00 | 00:00:00 | 00:00:00 | |
| 9A1FER-10 | 2026-08-30 12:06:07 | 46.03669 | 14.75851 | 114° | 78km/h | 11172m | 6.1m/s | 0°C | 0% | 0hPa | 0V | 00:00:00 | 00:00:00 | 00:00:00 | |
| 9A1FER-3 | 2026-08-30 12:05:53 | 46.03797 | 14.75493 | 116° | 77km/h | 11099m | 5.3m/s | 0°C | 0% | 0hPa | 0V | 00:00:00 | 00:00:00 | 00:00:00 | |
| 9A1FER-10 | 2026-08-30 12:05:52 | 46.03805 | 14.75467 | 113° | 75km/h | 11093m | 7.2m/s | 0°C | 0% | 0hPa | 0V | 00:00:00 | 00:00:00 | 00:00:00 | |
| 9A1FER-3 | 2026-08-30 12:05:39 | 46.03923 | 14.75120 | 117° | 75km/h | 11011m | 9.1m/s | 0°C | 0% | 0hPa | 0V | 00:00:00 | 00:00:00 | 00:00:00 | |
| 9A1FER-10 | 2026-08-30 12:05:37 | 46.03932 | 14.75095 | 118° | 73km/h | 11004m | 4.2m/s | 0°C | 0% | 0hPa | 0V | 00:00:00 | 00:00:00 | 00:00:00 | |
| 9A1FER-10 | 2026-08-30 12:05:23 | 46.04056 | 14.74738 | 112° | 75km/h | 10925m | 9.3m/s | 0°C | 0% | 0hPa | 0V | 00:00:00 | 00:00:00 | 00:00:00 | |
| 9A1FER-3 | 2026-08-30 12:05:08 | 46.04176 | 14.74401 | 117° | 73km/h | 10850m | 6.2m/s | 0°C | 0% | 0hPa | 0V | 00:00:00 | 00:00:00 | 00:00:00 | |
| 9A1FER-10 | 2026-08-30 12:05:07 | 46.04184 | 14.74377 | 113° | 71km/h | 10844m | 6.3m/s | 0°C | 0% | 0hPa | 0V | 00:00:00 | 00:00:00 | 00:00:00 | |
| 9A1FER-3 | 2026-08-30 12:04:53 | 46.04296 | 14.74049 | 116° | 69km/h | 10775m | 7.1m/s | 0°C | 0% | 0hPa | 0V | 00:00:00 | 00:00:00 | 00:00:00 | |
| 9A1FER-10 | 2026-08-30 12:04:52 | 46.04303 | 14.74027 | 116° | 73km/h | 10769m | 5.6m/s | 0°C | 0% | 0hPa | 0V | 00:00:00 | 00:00:00 | 00:00:00 | |
| 9A1FER-10 | 2026-08-30 12:04:37 | 46.04411 | 14.73667 | 119° | 68km/h | 10677m | 7.0m/s | 0°C | 0% | 0hPa | 0V | 00:00:00 | 00:00:00 | 00:00:00 | |
| 9A1FER-3 | 2026-08-30 12:03:47 | 46.04776 | 14.72569 | 117° | 64km/h | 10423m | 5.8m/s | 0°C | 0% | 0hPa | 0V | 00:00:00 | 00:00:00 | 00:00:00 | |
| 9A1FER-3 | 2026-08-30 12:03:12 | 46.05017 | 14.71811 | 118° | 60km/h | 10245m | 5.6m/s | 0°C | 0% | 0hPa | 0V | 00:00:00 | 00:00:00 | 00:00:00 | |
| 9A1FER-3 | 2026-08-30 12:02:52 | 46.05137 | 14.71415 | 113° | 60km/h | 10152m | 5.4m/s | 0°C | 0% | 0hPa | 0V | 00:00:00 | 00:00:00 | 00:00:00 | |
| OE3JTB-15 | 2026-08-30 12:02:45 | 46.05185 | 14.71269 | 118° | 60km/h | 10118m | 8.0m/s | 0°C | 0% | 0hPa | 0V | 00:00:00 | 00:00:00 | 00:00:00 | |
| 9A1FER-3 | 2026-08-30 12:02:30 | 46.05281 | 14.70967 | 112° | 60km/h | 10038m | 7.8m/s | 0°C | 0% | 0hPa | 0V | 00:00:00 | 00:00:00 | 00:00:00 | |
| 9A1FER-3 | 2026-08-30 12:02:14 | 46.05371 | 14.70640 | 112° | 60km/h | 9961m | 3.8m/s | 0°C | 0% | 0hPa | 0V | 00:00:00 | 00:00:00 | 00:00:00 | |
| OE3JTB-15 | 2026-08-30 12:02:13 | 46.05377 | 14.70620 | 114° | 62km/h | 9957m | 5.0m/s | 0°C | 0% | 0hPa | 0V | 00:00:00 | 00:00:00 | 00:00:00 | |
| 9A1FER-3 | 2026-08-30 12:01:59 | 46.05447 | 14.70321 | 110° | 64km/h | 9888m | 4.9m/s | 0°C | 0% | 0hPa | 0V | 00:00:00 | 00:00:00 | 00:00:00 | |
| 9A1FER-3 | 2026-08-30 12:01:44 | 46.05525 | 14.69992 | 107° | 66km/h | 9816m | 3.7m/s | 0°C | 0% | 0hPa | 0V | 00:00:00 | 00:00:00 | 00:00:00 | |
| 9A1FER-3 | 2026-08-30 12:01:29 | 46.05595 | 14.69642 | 103° | 68km/h | 9748m | 6.7m/s | 0°C | 0% | 0hPa | 0V | 00:00:00 | 00:00:00 | 00:00:00 | |
| 9A1FER-3 | 2026-08-30 12:01:14 | 46.05657 | 14.69292 | 104° | 58km/h | 9678m | 5.1m/s | 0°C | 0% | 0hPa | 0V | 00:00:00 | 00:00:00 | 00:00:00 | |
| OE3JTB-15 | 2026-08-30 12:00:32 | 46.05816 | 14.68386 | 103° | 60km/h | 9493m | 4.4m/s | 0°C | 0% | 0hPa | 0V | 00:00:00 | 00:00:00 | 00:00:00 | |
| 9A1FER-3 | 2026-08-30 11:57:52 | 46.06394 | 14.65229 | 109° | 53km/h | 8753m | 2.2m/s | 0°C | 0% | 0hPa | 0V | 00:00:00 | 00:00:00 | 00:00:00 | |
| 9A1FER-3 | 2026-08-30 11:57:29 | 46.06489 | 14.64808 | 108° | 51km/h | 8633m | 5.5m/s | 0°C | 0% | 0hPa | 0V | 00:00:00 | 00:00:00 | 00:00:00 | |
| OE3JTB-15 | 2026-08-30 11:57:26 | 46.06501 | 14.64756 | 111° | 49km/h | 8619m | 4.6m/s | 0°C | 0% | 0hPa | 0V | 00:00:00 | 00:00:00 | 00:00:00 | |
| 9A1FER-3 | 2026-08-30 11:57:14 | 46.06550 | 14.64544 | 104° | 53km/h | 8567m | 3.7m/s | 0°C | 0% | 0hPa | 0V | 00:00:00 | 00:00:00 | 00:00:00 | |
| OE3JTB-15 | 2026-08-30 11:56:35 | 46.06668 | 14.63846 | 101° | 47km/h | 8410m | 4.5m/s | 0°C | 0% | 0hPa | 0V | 00:00:00 | 00:00:00 | 00:00:00 | |
| IV3AMH | 2026-08-30 11:52:17 | 46.07089 | 14.59809 | 90° | 49km/h | 7194m | 6.6m/s | 0°C | 0% | 0hPa | 0V | 00:00:00 | 00:00:00 | 00:00:00 |